Observation data for Crowell on 06/30/2020      Previous  Date  Next       Current Mesonet Observations  Soil Data  Daily Summary Page  Observations in Plain Language
KCR1 300500Z 19021KT 29/20 A2972 RMK A01 T02930198  RH  057%=      5-min Rain = 0
KCR1 300501Z 20023KT 29/20 A2972 RMK A01 T02920198  RH  057%=      5-min Rain = 0
KCR1 300502Z 20024KT 29/20 A2972 RMK A01 T02920198  RH  057%=      5-min Rain = 0
KCR1 300503Z 20023G28KT 29/20 A2972 RMK A01 T02920199  RH  057%=      5-min Rain = 0
KCR1 300504Z 19023G30KT 29/20 A2972 RMK A01 T02920199  RH  057%=      5-min Rain = 0
KCR1 300505Z 20023KT 29/20 A2972 RMK A01 T02910199  RH  058%=      5-min Rain = 0
KCR1 300506Z 20022KT 29/20 A2972 RMK A01 T02910199  RH  058%=      5-min Rain = 0
KCR1 300507Z 20024G30KT 29/20 A2972 RMK A01 T02900199  RH  058%=      5-min Rain = 0
KCR1 300508Z 20025G31KT 29/20 A2972 RMK A01 T02900198  RH  057%=      5-min Rain = 0
KCR1 300509Z 20021KT 29/20 A2973 RMK A01 T02900198  RH  057%=      5-min Rain = 0
KCR1 300510Z 20020KT 29/20 A2973 RMK A01 T02900198  RH  058%=      5-min Rain = 0
KCR1 300511Z 20021G26KT 29/20 A2973 RMK A01 T02900197  RH  057%=      5-min Rain = 0
KCR1 300512Z 19023KT 29/20 A2973 RMK A01 T02900196  RH  057%=      5-min Rain = 0
KCR1 300513Z 20024G29KT 29/20 A2973 RMK A01 T02890195  RH  057%=      5-min Rain = 0
KCR1 300514Z 20026G31KT 29/20 A2973 RMK A01 T02900195  RH  057%=      5-min Rain = 0
KCR1 300515Z 19023KT 29/20 A2973 RMK A01 T02890196  RH  057%=      5-min Rain = 0
KCR1 300516Z 20019G25KT 29/20 A2973 RMK A01 T02890195  RH  057%=      5-min Rain = 0
KCR1 300517Z 21021G28KT 29/20 A2973 RMK A01 T02880196  RH  057%=      5-min Rain = 0
KCR1 300518Z 20022KT 29/19 A2973 RMK A01 T02880194  RH  057%=      5-min Rain = 0
KCR1 300519Z 20022KT 29/19 A2973 RMK A01 T02880194  RH  057%=      5-min Rain = 0
KCR1 300520Z 19021G26KT 29/19 A2973 RMK A01 T02880194  RH  057%=      5-min Rain = 0
KCR1 300521Z 20021KT 29/19 A2973 RMK A01 T02880194  RH  057%=      5-min Rain = 0
KCR1 300522Z 20020KT 29/19 A2973 RMK A01 T02880194  RH  057%=      5-min Rain = 0
KCR1 300523Z 20020KT 29/19 A2973 RMK A01 T02880194  RH  057%=      5-min Rain = 0
KCR1 300524Z 19020KT 29/19 A2973 RMK A01 T02870193  RH  057%=      5-min Rain = 0
KCR1 300525Z 20023G29KT 29/19 A2973 RMK A01 T02870193  RH  057%=      5-min Rain = 0
KCR1 300526Z 20022KT 29/20 A2973 RMK A01 T02870195  RH  057%=      5-min Rain = 0
KCR1 300527Z 19020KT 29/20 A2973 RMK A01 T02870195  RH  058%=      5-min Rain = 0
KCR1 300528Z 20020KT 29/20 A2973 RMK A01 T02860195  RH  058%=      5-min Rain = 0
KCR1 300529Z 20018KT 29/20 A2973 RMK A01 T02850195  RH  058%=      5-min Rain = 0
KCR1 300530Z 20019KT 29/20 A2973 RMK A01 T02850195  RH  058%=      5-min Rain = 0
KCR1 300531Z 20018KT 28/20 A2973 RMK A01 T02840196  RH  059%=      5-min Rain = 0
KCR1 300532Z 20015G20KT 28/20 A2973 RMK A01 T02840196  RH  059%=      5-min Rain = 0
KCR1 300533Z 20014KT 28/20 A2973 RMK A01 T02830196  RH  059%=      5-min Rain = 0
KCR1 300534Z 20016KT 28/20 A2973 RMK A01 T02830196  RH  059%=      5-min Rain = 0
KCR1 300535Z 20017G22KT 28/20 A2973 RMK A01 T02830196  RH  059%=      5-min Rain = 0
KCR1 300536Z 20018KT 28/20 A2973 RMK A01 T02820195  RH  059%=      5-min Rain = 0
KCR1 300537Z 21017KT 28/20 A2973 RMK A01 T02830195  RH  059%=      5-min Rain = 0
KCR1 300538Z 20017KT 28/20 A2973 RMK A01 T02830195  RH  059%=      5-min Rain = 0
KCR1 300539Z 20018KT 28/19 A2973 RMK A01 T02830194  RH  059%=      5-min Rain = 0
KCR1 300540Z 20013G19KT 28/19 A2973 RMK A01 T02820194  RH  059%=      5-min Rain = 0
KCR1 300541Z 21012KT 28/20 A2973 RMK A01 T02820195  RH  059%=      5-min Rain = 0
KCR1 300542Z 20013G18KT 28/20 A2973 RMK A01 T02810195  RH  059%=      5-min Rain = 0
KCR1 300543Z 21014KT 28/19 A2973 RMK A01 T02800194  RH  059%=      5-min Rain = 0
KCR1 300544Z 21013KT 28/19 A2973 RMK A01 T02800193  RH  059%=      5-min Rain = 0
KCR1 300545Z 21013G18KT 28/19 A2973 RMK A01 T02800193  RH  059%=      5-min Rain = 0
KCR1 300546Z 21017KT 28/19 A2973 RMK A01 T02790193  RH  059%=      5-min Rain = 0
KCR1 300547Z 21015G20KT 28/19 A2973 RMK A01 T02790193  RH  059%=      5-min Rain = 0
KCR1 300548Z 21013KT 28/19 A2973 RMK A01 T02790193  RH  059%=      5-min Rain = 0
KCR1 300549Z 21013KT 28/19 A2973 RMK A01 T02790193  RH  060%=      5-min Rain = 0
KCR1 300550Z 21014KT 28/19 A2973 RMK A01 T02780193  RH  060%=      5-min Rain = 0
KCR1 300551Z 20017G25KT 28/19 A2973 RMK A01 T02780190  RH  059%=      5-min Rain = 0
KCR1 300552Z 20021KT 28/19 A2973 RMK A01 T02780186  RH  057%=      5-min Rain = 0
KCR1 300553Z 20016KT 28/19 A2973 RMK A01 T02780185  RH  057%=      5-min Rain = 0
KCR1 300554Z 21015KT 28/19 A2973 RMK A01 T02790186  RH  057%=      5-min Rain = 0
KCR1 300555Z 21016KT 28/19 A2973 RMK A01 T02780185  RH  057%=      5-min Rain = 0
KCR1 300556Z 21016KT 28/19 A2973 RMK A01 T02780185  RH  057%=      5-min Rain = 0
KCR1 300557Z 21015KT 28/18 A2973 RMK A01 T02770184  RH  057%=      5-min Rain = 0
KCR1 300558Z 20017KT 28/18 A2973 RMK A01 T02770184  RH  057%=      5-min Rain = 0
KCR1 300559Z 21014KT 28/18 A2973 RMK A01 T02760184  RH  057%=      5-min Rain = 0
KCR1 300600Z 21014G19KT 28/18 A2973 RMK A01 T02760184  RH  057%=      5-min Rain = 0
KCR1 300601Z 21014KT 28/18 A2973 RMK A01 T02750183  RH  057%=      5-min Rain = 0
KCR1 300602Z 21014KT 28/18 A2974 RMK A01 T02750183  RH  057%=      5-min Rain = 0
KCR1 300603Z 21016KT 28/18 A2973 RMK A01 T02750180  RH  056%=      5-min Rain = 0
KCR1 300604Z 21018KT 28/18 A2973 RMK A01 T02750179  RH  056%=      5-min Rain = 0
KCR1 300605Z 21015KT 28/18 A2974 RMK A01 T02750178  RH  055%=      5-min Rain = 0
KCR1 300606Z 20015KT 28/18 A2974 RMK A01 T02750177  RH  055%=      5-min Rain = 0
KCR1 300607Z 21015KT 28/18 A2974 RMK A01 T02750176  RH  055%=      5-min Rain = 0
KCR1 300608Z 21015KT 28/17 A2974 RMK A01 T02750172  RH  053%=      5-min Rain = 0
KCR1 300609Z 20013KT 28/17 A2974 RMK A01 T02750173  RH  053%=      5-min Rain = 0
KCR1 300610Z 20016G21KT 28/17 A2973 RMK A01 T02750171  RH  053%=      5-min Rain = 0
KCR1 300611Z 21019KT 28/17 A2973 RMK A01 T02750166  RH  051%=      5-min Rain = 0
KCR1 300612Z 21017G22KT 28/16 A2973 RMK A01 T02750162  RH  050%=      5-min Rain = 0
KCR1 300613Z 21015KT 28/16 A2974 RMK A01 T02750163  RH  050%=      5-min Rain = 0
KCR1 300614Z 21014KT 28/16 A2974 RMK A01 T02750162  RH  050%=      5-min Rain = 0
KCR1 300615Z 21015KT 28/16 A2974 RMK A01 T02750161  RH  050%=      5-min Rain = 0
KCR1 300616Z 21013KT 28/16 A2974 RMK A01 T02750161  RH  050%=      5-min Rain = 0
KCR1 300617Z 21014KT 27/16 A2974 RMK A01 T02740159  RH  049%=      5-min Rain = 0
KCR1 300618Z 21015KT 27/16 A2974 RMK A01 T02740156  RH  048%=      5-min Rain = 0
KCR1 300619Z 21016KT 28/16 A2973 RMK A01 T02750155  RH  048%=      5-min Rain = 0
KCR1 300620Z 21015G21KT 28/15 A2973 RMK A01 T02750154  RH  048%=      5-min Rain = 0
KCR1 300621Z 21012KT 28/16 A2973 RMK A01 T02760155  RH  048%=      5-min Rain = 0
KCR1 300622Z 21012KT 28/16 A2973 RMK A01 T02750155  RH  048%=      5-min Rain = 0
KCR1 300623Z 21013KT 27/15 A2973 RMK A01 T02740154  RH  048%=      5-min Rain = 0
KCR1 300624Z 21012KT 27/15 A2973 RMK A01 T02740153  RH  048%=      5-min Rain = 0
KCR1 300625Z 21011KT 27/15 A2973 RMK A01 T02740153  RH  047%=      5-min Rain = 0
KCR1 300626Z 21012KT 27/15 A2973 RMK A01 T02740153  RH  048%=      5-min Rain = 0
KCR1 300627Z 21012KT 27/15 A2973 RMK A01 T02740153  RH  048%=      5-min Rain = 0
KCR1 300628Z 21012KT 27/15 A2974 RMK A01 T02740153  RH  048%=      5-min Rain = 0
KCR1 300629Z 21015KT 27/15 A2973 RMK A01 T02740154  RH  048%=      5-min Rain = 0
KCR1 300630Z 21014KT 28/15 A2974 RMK A01 T02750154  RH  048%=      5-min Rain = 0
KCR1 300631Z 20011KT 28/15 A2974 RMK A01 T02750154  RH  048%=      5-min Rain = 0
KCR1 300632Z 21014KT 28/15 A2974 RMK A01 T02750154  RH  048%=      5-min Rain = 0
KCR1 300633Z 21012KT 28/15 A2974 RMK A01 T02750154  RH  048%=      5-min Rain = 0
KCR1 300634Z 21012KT 27/15 A2974 RMK A01 T02740153  RH  048%=      5-min Rain = 0
KCR1 300635Z 21012KT 27/15 A2974 RMK A01 T02740154  RH  048%=      5-min Rain = 0
KCR1 300636Z 21013G18KT 27/15 A2974 RMK A01 T02730154  RH  048%=      5-min Rain = 0
KCR1 300637Z 21014KT 27/15 A2974 RMK A01 T02730154  RH  048%=      5-min Rain = 0
KCR1 300638Z 20012KT 27/15 A2974 RMK A01 T02730153  RH  048%=      5-min Rain = 0
KCR1 300639Z 21013KT 27/15 A2974 RMK A01 T02730153  RH  048%=      5-min Rain = 0
KCR1 300640Z 20013KT 27/15 A2974 RMK A01 T02740153  RH  048%=      5-min Rain = 0
KCR1 300641Z 20013KT 27/15 A2974 RMK A01 T02740153  RH  048%=      5-min Rain = 0
KCR1 300642Z 21012KT 27/15 A2974 RMK A01 T02740154  RH  048%=      5-min Rain = 0
KCR1 300643Z 20012KT 27/15 A2974 RMK A01 T02740154  RH  048%=      5-min Rain = 0
KCR1 300644Z 21014KT 27/15 A2974 RMK A01 T02730154  RH  048%=      5-min Rain = 0
KCR1 300645Z 20014KT 27/15 A2974 RMK A01 T02730154  RH  048%=      5-min Rain = 0
KCR1 300646Z 20012KT 27/15 A2974 RMK A01 T02740154  RH  048%=      5-min Rain = 0
KCR1 300647Z 20012KT 27/16 A2974 RMK A01 T02740155  RH  048%=      5-min Rain = 0
KCR1 300648Z 21010KT 27/16 A2974 RMK A01 T02730155  RH  048%=      5-min Rain = 0
KCR1 300649Z 20010KT 27/16 A2974 RMK A01 T02730155  RH  049%=      5-min Rain = 0
KCR1 300650Z 20012KT 27/16 A2974 RMK A01 T02720156  RH  049%=      5-min Rain = 0
KCR1 300651Z 20012KT 27/16 A2974 RMK A01 T02720156  RH  049%=      5-min Rain = 0
KCR1 300652Z 20012KT 27/16 A2974 RMK A01 T02720156  RH  049%=      5-min Rain = 0
KCR1 300653Z 21010KT 27/16 A2974 RMK A01 T02720157  RH  049%=      5-min Rain = 0
KCR1 300654Z 20012KT 27/16 A2974 RMK A01 T02720158  RH  050%=      5-min Rain = 0
KCR1 300655Z 20013KT 27/16 A2974 RMK A01 T02730159  RH  050%=      5-min Rain = 0
KCR1 300656Z 21013KT 27/16 A2973 RMK A01 T02730159  RH  050%=      5-min Rain = 0
KCR1 300657Z 21010KT 27/16 A2973 RMK A01 T02730160  RH  050%=      5-min Rain = 0
KCR1 300658Z 21013KT 27/16 A2973 RMK A01 T02730160  RH  050%=      5-min Rain = 0
KCR1 300659Z 20012KT 27/16 A2973 RMK A01 T02730161  RH  050%=      5-min Rain = 0
KCR1 300700Z 20012KT 27/16 A2973 RMK A01 T02720161  RH  051%=      5-min Rain = 0
KCR1 300701Z 20012KT 27/16 A2973 RMK A01 T02720162  RH  051%=      5-min Rain = 0
KCR1 300702Z 20013KT 27/16 A2973 RMK A01 T02720163  RH  051%=      5-min Rain = 0
KCR1 300703Z 20014KT 27/16 A2973 RMK A01 T02720164  RH  051%=      5-min Rain = 0
KCR1 300704Z 20012KT 27/16 A2973 RMK A01 T02730164  RH  051%=      5-min Rain = 0
KCR1 300705Z 20013KT 27/17 A2973 RMK A01 T02730165  RH  052%=      5-min Rain = 0
KCR1 300706Z 20015KT 27/17 A2973 RMK A01 T02730165  RH  052%=      5-min Rain = 0
KCR1 300707Z 20012KT 27/17 A2973 RMK A01 T02730166  RH  052%=      5-min Rain = 0
KCR1 300708Z 20014KT 27/17 A2973 RMK A01 T02740167  RH  052%=      5-min Rain = 0
KCR1 300709Z 20015KT 27/17 A2973 RMK A01 T02740168  RH  052%=      5-min Rain = 0
KCR1 300710Z 20013KT 27/17 A2973 RMK A01 T02740168  RH  052%=      5-min Rain = 0
KCR1 300711Z 20013KT 27/17 A2973 RMK A01 T02740169  RH  053%=      5-min Rain = 0
KCR1 300712Z 20012KT 27/17 A2973 RMK A01 T02740170  RH  053%=      5-min Rain = 0
KCR1 300713Z 20013KT 28/17 A2973 RMK A01 T02750171  RH  053%=      5-min Rain = 0
KCR1 300714Z 20013KT 27/17 A2973 RMK A01 T02740170  RH  053%=      5-min Rain = 0
KCR1 300715Z 20013KT 27/17 A2973 RMK A01 T02740171  RH  053%=      5-min Rain = 0
KCR1 300716Z 20012KT 27/17 A2973 RMK A01 T02740171  RH  053%=      5-min Rain = 0
KCR1 300717Z 20013KT 27/17 A2973 RMK A01 T02740172  RH  054%=      5-min Rain = 0
KCR1 300718Z 20013KT 27/17 A2973 RMK A01 T02740172  RH  054%=      5-min Rain = 0
KCR1 300719Z 20013KT 27/17 A2973 RMK A01 T02740173  RH  054%=      5-min Rain = 0
KCR1 300720Z 20012KT 27/17 A2973 RMK A01 T02740173  RH  054%=      5-min Rain = 0
KCR1 300721Z 19012KT 27/17 A2973 RMK A01 T02740173  RH  054%=      5-min Rain = 0
KCR1 300722Z 20012KT 27/17 A2973 RMK A01 T02740174  RH  054%=      5-min Rain = 0
KCR1 300723Z 19013KT 27/17 A2973 RMK A01 T02740174  RH  055%=      5-min Rain = 0
KCR1 300724Z 20013KT 27/18 A2973 RMK A01 T02730175  RH  055%=      5-min Rain = 0
KCR1 300725Z 20012KT 27/18 A2973 RMK A01 T02730175  RH  055%=      5-min Rain = 0
KCR1 300726Z 20012KT 27/18 A2973 RMK A01 T02730176  RH  055%=      5-min Rain = 0
KCR1 300727Z 20013KT 27/18 A2973 RMK A01 T02730177  RH  056%=      5-min Rain = 0
KCR1 300728Z 20012KT 27/18 A2973 RMK A01 T02730177  RH  056%=      5-min Rain = 0
KCR1 300729Z 20014KT 27/18 A2973 RMK A01 T02730178  RH  056%=      5-min Rain = 0
KCR1 300730Z 20013KT 27/18 A2973 RMK A01 T02740179  RH  056%=      5-min Rain = 0
KCR1 300731Z 20013KT 27/18 A2973 RMK A01 T02740179  RH  056%=      5-min Rain = 0
KCR1 300732Z 20012KT 27/18 A2973 RMK A01 T02740180  RH  056%=      5-min Rain = 0
KCR1 300733Z 20013KT 27/18 A2973 RMK A01 T02740181  RH  057%=      5-min Rain = 0
KCR1 300734Z 20013KT 27/18 A2973 RMK A01 T02740181  RH  057%=      5-min Rain = 0
KCR1 300735Z 20015KT 27/18 A2973 RMK A01 T02740182  RH  057%=      5-min Rain = 0
KCR1 300736Z 20012KT 27/18 A2973 RMK A01 T02740182  RH  057%=      5-min Rain = 0
KCR1 300737Z 20012KT 27/18 A2973 RMK A01 T02740183  RH  057%=      5-min Rain = 0
KCR1 300738Z 20014KT 27/18 A2973 RMK A01 T02740184  RH  058%=      5-min Rain = 0
KCR1 300739Z 20014KT 27/19 A2973 RMK A01 T02740185  RH  058%=      5-min Rain = 0
KCR1 300740Z 20014KT 28/19 A2972 RMK A01 T02750186  RH  058%=      5-min Rain = 0
KCR1 300741Z 20015KT 28/19 A2972 RMK A01 T02750186  RH  058%=      5-min Rain = 0
KCR1 300742Z 20011KT 28/19 A2973 RMK A01 T02760186  RH  058%=      5-min Rain = 0
KCR1 300743Z 20011KT 28/19 A2972 RMK A01 T02750187  RH  058%=      5-min Rain = 0
KCR1 300744Z 20011KT 28/19 A2972 RMK A01 T02750187  RH  059%=      5-min Rain = 0
KCR1 300745Z 20013KT 28/19 A2972 RMK A01 T02750188  RH  059%=      5-min Rain = 0
KCR1 300746Z 20012KT 28/19 A2972 RMK A01 T02750188  RH  059%=      5-min Rain = 0
KCR1 300747Z 20014KT 28/19 A2972 RMK A01 T02750189  RH  059%=      5-min Rain = 0
KCR1 300748Z 21012G17KT 28/19 A2972 RMK A01 T02750189  RH  059%=      5-min Rain = 0
KCR1 300749Z 20014KT 28/19 A2972 RMK A01 T02750190  RH  060%=      5-min Rain = 0
KCR1 300750Z 20015KT 28/19 A2972 RMK A01 T02750190  RH  060%=      5-min Rain = 0
KCR1 300751Z 20017KT 28/19 A2972 RMK A01 T02760192  RH  060%=      5-min Rain = 0
KCR1 300752Z 20016KT 28/19 A2972 RMK A01 T02770193  RH  060%=      5-min Rain = 0
KCR1 300753Z 21015KT 28/19 A2972 RMK A01 T02770193  RH  060%=      5-min Rain = 0
KCR1 300754Z 20014KT 28/19 A2972 RMK A01 T02770193  RH  060%=      5-min Rain = 0
KCR1 300755Z 21015KT 28/19 A2972 RMK A01 T02770193  RH  060%=      5-min Rain = 0
KCR1 300756Z 21016KT 28/20 A2972 RMK A01 T02770195  RH  061%=      5-min Rain = 0
KCR1 300757Z 20013KT 28/19 A2972 RMK A01 T02760194  RH  061%=      5-min Rain = 0
KCR1 300758Z 21014G19KT 28/20 A2972 RMK A01 T02770195  RH  061%=      5-min Rain = 0
KCR1 300759Z 20014KT 28/20 A2972 RMK A01 T02770196  RH  062%=      5-min Rain = 0
KCR1 300800Z 20016KT 28/20 A2972 RMK A01 T02770196  RH  062%=      5-min Rain = 0
KCR1 300801Z 20012KT 28/20 A2972 RMK A01 T02770197  RH  062%=      5-min Rain = 0
KCR1 300802Z 21012KT 28/20 A2972 RMK A01 T02780197  RH  062%=      5-min Rain = 0
KCR1 300803Z 21013KT 28/20 A2972 RMK A01 T02770197  RH  062%=      5-min Rain = 0
KCR1 300804Z 20014KT 28/20 A2972 RMK A01 T02770198  RH  062%=      5-min Rain = 0
KCR1 300805Z 21014KT 28/20 A2972 RMK A01 T02770198  RH  062%=      5-min Rain = 0
KCR1 300806Z 20013KT 28/20 A2972 RMK A01 T02770198  RH  062%=      5-min Rain = 0
KCR1 300807Z 21014KT 28/20 A2972 RMK A01 T02760199  RH  063%=      5-min Rain = 0
KCR1 300808Z 20012KT 28/20 A2972 RMK A01 T02760199  RH  063%=      5-min Rain = 0
KCR1 300809Z 21010KT 28/20 A2972 RMK A01 T02760199  RH  063%=      5-min Rain = 0
KCR1 300810Z 20013KT 28/20 A2972 RMK A01 T02760200  RH  063%=      5-min Rain = 0
KCR1 300811Z 20012KT 28/20 A2972 RMK A01 T02760200  RH  063%=      5-min Rain = 0
KCR1 300812Z 21012KT 28/20 A2972 RMK A01 T02760201  RH  064%=      5-min Rain = 0
KCR1 300813Z 20012KT 28/20 A2972 RMK A01 T02760200  RH  063%=      5-min Rain = 0
KCR1 300814Z 21013KT 28/20 A2972 RMK A01 T02760201  RH  064%=      5-min Rain = 0
KCR1 300815Z 20012KT 28/20 A2972 RMK A01 T02760201  RH  064%=      5-min Rain = 0
KCR1 300816Z 20012KT 28/20 A2972 RMK A01 T02760202  RH  064%=      5-min Rain = 0
KCR1 300817Z 20013G18KT 28/20 A2972 RMK A01 T02760202  RH  064%=      5-min Rain = 0
KCR1 300818Z 20014KT 28/20 A2972 RMK A01 T02760203  RH  064%=      5-min Rain = 0
KCR1 300819Z 20014KT 28/20 A2972 RMK A01 T02760202  RH  064%=      5-min Rain = 0
KCR1 300820Z 21015KT 28/20 A2972 RMK A01 T02760202  RH  064%=      5-min Rain = 0
KCR1 300821Z 20013KT 28/20 A2972 RMK A01 T02770203  RH  064%=      5-min Rain = 0
KCR1 300822Z 21012KT 28/20 A2972 RMK A01 T02770203  RH  064%=      5-min Rain = 0
KCR1 300823Z 21013KT 28/20 A2972 RMK A01 T02760203  RH  064%=      5-min Rain = 0
KCR1 300824Z 21013KT 28/20 A2972 RMK A01 T02760203  RH  064%=      5-min Rain = 0
KCR1 300825Z 21012KT 28/20 A2972 RMK A01 T02760203  RH  065%=      5-min Rain = 0
KCR1 300826Z 21013KT 28/20 A2972 RMK A01 T02760203  RH  065%=      5-min Rain = 0
KCR1 300827Z 21014KT 28/20 A2972 RMK A01 T02760204  RH  065%=      5-min Rain = 0
KCR1 300828Z 22011KT 28/20 A2972 RMK A01 T02760203  RH  065%=      5-min Rain = 0
KCR1 300829Z 22011KT 28/20 A2972 RMK A01 T02760204  RH  065%=      5-min Rain = 0
KCR1 300830Z 21011KT 28/20 A2972 RMK A01 T02750204  RH  065%=      5-min Rain = 0
KCR1 300831Z 22012KT 28/20 A2972 RMK A01 T02760204  RH  065%=      5-min Rain = 0
KCR1 300832Z 22011KT 28/20 A2972 RMK A01 T02760204  RH  065%=      5-min Rain = 0
KCR1 300833Z 22010KT 28/20 A2972 RMK A01 T02760204  RH  065%=      5-min Rain = 0
KCR1 300834Z 22013KT 28/21 A2972 RMK A01 T02760205  RH  065%=      5-min Rain = 0
KCR1 300835Z 22011KT 28/21 A2972 RMK A01 T02760205  RH  065%=      5-min Rain = 0
KCR1 300836Z 22011KT 28/21 A2972 RMK A01 T02770205  RH  065%=      5-min Rain = 0
KCR1 300837Z 22011KT 28/21 A2972 RMK A01 T02770205  RH  065%=      5-min Rain = 0
KCR1 300838Z 22013KT 28/21 A2972 RMK A01 T02770205  RH  065%=      5-min Rain = 0
KCR1 300839Z 22012KT 28/21 A2972 RMK A01 T02770206  RH  065%=      5-min Rain = 0
KCR1 300840Z 22013KT 28/21 A2972 RMK A01 T02770206  RH  065%=      5-min Rain = 0
KCR1 300841Z 22015KT 28/21 A2972 RMK A01 T02770206  RH  065%=      5-min Rain = 0
KCR1 300842Z 22013KT 28/21 A2972 RMK A01 T02770206  RH  065%=      5-min Rain = 0
KCR1 300843Z 22012KT 28/21 A2972 RMK A01 T02770206  RH  065%=      5-min Rain = 0
KCR1 300844Z 21015KT 28/21 A2972 RMK A01 T02760206  RH  066%=      5-min Rain = 0
KCR1 300845Z 22012KT 28/21 A2972 RMK A01 T02770206  RH  066%=      5-min Rain = 0
KCR1 300846Z 22015KT 28/21 A2972 RMK A01 T02760206  RH  066%=      5-min Rain = 0
KCR1 300847Z 22015KT 28/21 A2972 RMK A01 T02760206  RH  066%=      5-min Rain = 0
KCR1 300848Z 22014KT 28/21 A2972 RMK A01 T02770207  RH  066%=      5-min Rain = 0
KCR1 300849Z 21015KT 28/21 A2972 RMK A01 T02760206  RH  066%=      5-min Rain = 0
KCR1 300850Z 21013G18KT 28/21 A2972 RMK A01 T02760206  RH  066%=      5-min Rain = 0
KCR1 300851Z 22015KT 28/21 A2972 RMK A01 T02760206  RH  066%=      5-min Rain = 0
KCR1 300852Z 22015KT 28/21 A2971 RMK A01 T02760207  RH  066%=      5-min Rain = 0
KCR1 300853Z 21015KT 28/21 A2972 RMK A01 T02760207  RH  066%=      5-min Rain = 0
KCR1 300854Z 21013KT 28/21 A2972 RMK A01 T02750207  RH  066%=      5-min Rain = 0
KCR1 300855Z 21015KT 28/21 A2972 RMK A01 T02750207  RH  066%=      5-min Rain = 0
KCR1 300856Z 21014KT 28/21 A2972 RMK A01 T02750207  RH  066%=      5-min Rain = 0
KCR1 300857Z 21014KT 28/21 A2972 RMK A01 T02750207  RH  066%=      5-min Rain = 0
KCR1 300858Z 21012KT 27/21 A2972 RMK A01 T02740207  RH  067%=      5-min Rain = 0
KCR1 300859Z 22016KT 27/21 A2972 RMK A01 T02740207  RH  067%=      5-min Rain = 0
KCR1 300900Z 21016KT 27/21 A2972 RMK A01 T02740207  RH  067%=      5-min Rain = 0
KCR1 300901Z 21014KT 27/21 A2972 RMK A01 T02740207  RH  067%=      5-min Rain = 0
KCR1 300902Z 22014G19KT 27/21 A2972 RMK A01 T02740207  RH  067%=      5-min Rain = 0
KCR1 300903Z 22014KT 27/21 A2972 RMK A01 T02740207  RH  067%=      5-min Rain = 0
KCR1 300904Z 21012KT 27/21 A2972 RMK A01 T02730207  RH  067%=      5-min Rain = 0
KCR1 300905Z 21015KT 27/21 A2972 RMK A01 T02730207  RH  067%=      5-min Rain = 0
KCR1 300906Z 21013KT 27/21 A2972 RMK A01 T02730207  RH  067%=      5-min Rain = 0
KCR1 300907Z 21013KT 27/21 A2971 RMK A01 T02730207  RH  067%=      5-min Rain = 0
KCR1 300908Z 21013KT 27/21 A2972 RMK A01 T02730207  RH  067%=      5-min Rain = 0
KCR1 300909Z 21014KT 27/21 A2972 RMK A01 T02730207  RH  067%=      5-min Rain = 0
KCR1 300910Z 21014KT 27/21 A2972 RMK A01 T02730207  RH  067%=      5-min Rain = 0
KCR1 300911Z 21014KT 27/21 A2972 RMK A01 T02720207  RH  068%=      5-min Rain = 0
KCR1 300912Z 21015KT 27/21 A2972 RMK A01 T02720208  RH  068%=      5-min Rain = 0
KCR1 300913Z 21013KT 27/21 A2972 RMK A01 T02720208  RH  068%=      5-min Rain = 0
KCR1 300914Z 21014KT 27/21 A2972 RMK A01 T02720208  RH  068%=      5-min Rain = 0
KCR1 300915Z 21017KT 27/21 A2972 RMK A01 T02720208  RH  068%=      5-min Rain = 0
KCR1 300916Z 21015KT 27/21 A2971 RMK A01 T02720208  RH  068%=      5-min Rain = 0
KCR1 300917Z 21013KT 27/21 A2972 RMK A01 T02720208  RH  068%=      5-min Rain = 0
KCR1 300918Z 21016KT 27/21 A2971 RMK A01 T02720208  RH  068%=      5-min Rain = 0
KCR1 300919Z 21015KT 27/21 A2971 RMK A01 T02720208  RH  068%=      5-min Rain = 0
KCR1 300920Z 21013KT 27/21 A2971 RMK A01 T02720208  RH  068%=      5-min Rain = 0
KCR1 300921Z 21012KT 27/21 A2971 RMK A01 T02710208  RH  068%=      5-min Rain = 0
KCR1 300922Z 21013G18KT 27/21 A2971 RMK A01 T02710208  RH  068%=      5-min Rain = 0
KCR1 300923Z 21014KT 27/21 A2971 RMK A01 T02700208  RH  069%=      5-min Rain = 0
KCR1 300924Z 21013KT 27/21 A2971 RMK A01 T02700208  RH  069%=      5-min Rain = 0
KCR1 300925Z 21013G19KT 27/21 A2971 RMK A01 T02700208  RH  069%=      5-min Rain = 0
KCR1 300926Z 21014KT 27/21 A2971 RMK A01 T02700208  RH  069%=      5-min Rain = 0
KCR1 300927Z 21016KT 27/21 A2971 RMK A01 T02700208  RH  069%=      5-min Rain = 0
KCR1 300928Z 21014G19KT 27/21 A2971 RMK A01 T02710209  RH  069%=      5-min Rain = 0
KCR1 300929Z 21013KT 27/21 A2972 RMK A01 T02710209  RH  069%=      5-min Rain = 0
KCR1 300930Z 21014KT 27/21 A2972 RMK A01 T02710208  RH  069%=      5-min Rain = 0
KCR1 300931Z 21012KT 27/21 A2972 RMK A01 T02700208  RH  069%=      5-min Rain = 0
KCR1 300932Z 21013KT 27/21 A2972 RMK A01 T02700209  RH  069%=      5-min Rain = 0
KCR1 300933Z 21014KT 27/21 A2972 RMK A01 T02690209  RH  069%=      5-min Rain = 0
KCR1 300934Z 21013KT 27/21 A2972 RMK A01 T02690208  RH  069%=      5-min Rain = 0
KCR1 300935Z 21013KT 27/21 A2972 RMK A01 T02690208  RH  069%=      5-min Rain = 0
KCR1 300936Z 21013KT 27/21 A2972 RMK A01 T02690208  RH  069%=      5-min Rain = 0
KCR1 300937Z 21012KT 27/21 A2972 RMK A01 T02690209  RH  070%=      5-min Rain = 0
KCR1 300938Z 21011KT 27/21 A2972 RMK A01 T02680209  RH  070%=      5-min Rain = 0
KCR1 300939Z 20012KT 27/21 A2972 RMK A01 T02670208  RH  070%=      5-min Rain = 0
KCR1 300940Z 21012KT 27/21 A2972 RMK A01 T02670208  RH  070%=      5-min Rain = 0
KCR1 300941Z 21011KT 27/21 A2972 RMK A01 T02670209  RH  070%=      5-min Rain = 0
KCR1 300942Z 20012G17KT 27/21 A2972 RMK A01 T02660208  RH  071%=      5-min Rain = 0
KCR1 300943Z 21014KT 27/21 A2972 RMK A01 T02660209  RH  071%=      5-min Rain = 0
KCR1 300944Z 20013KT 27/21 A2972 RMK A01 T02670209  RH  070%=      5-min Rain = 0
KCR1 300945Z 20014KT 27/21 A2972 RMK A01 T02670209  RH  070%=      5-min Rain = 0
KCR1 300946Z 20014KT 27/21 A2972 RMK A01 T02670209  RH  070%=      5-min Rain = 0
KCR1 300947Z 20014KT 27/21 A2972 RMK A01 T02670209  RH  070%=      5-min Rain = 0
KCR1 300948Z 21012KT 27/21 A2972 RMK A01 T02670209  RH  070%=      5-min Rain = 0
KCR1 300949Z 20014KT 27/21 A2972 RMK A01 T02670209  RH  071%=      5-min Rain = 0
KCR1 300950Z 20010KT 27/21 A2972 RMK A01 T02670209  RH  071%=      5-min Rain = 0
KCR1 300951Z 21013KT 27/21 A2972 RMK A01 T02670210  RH  071%=      5-min Rain = 0
KCR1 300952Z 21012KT 27/21 A2972 RMK A01 T02660209  RH  071%=      5-min Rain = 0
KCR1 300953Z 21013KT 27/21 A2972 RMK A01 T02650209  RH  071%=      5-min Rain = 0
KCR1 300954Z 20015KT 27/21 A2972 RMK A01 T02650209  RH  071%=      5-min Rain = 0
KCR1 300955Z 21011KT 27/21 A2972 RMK A01 T02650209  RH  071%=      5-min Rain = 0
KCR1 300956Z 21011KT 27/21 A2972 RMK A01 T02660209  RH  071%=      5-min Rain = 0
KCR1 300957Z 21012KT 27/21 A2972 RMK A01 T02650209  RH  071%=      5-min Rain = 0
KCR1 300958Z 21012KT 27/21 A2972 RMK A01 T02650209  RH  072%=      5-min Rain = 0
KCR1 300959Z 20014KT 27/21 A2972 RMK A01 T02650210  RH  072%=      5-min Rain = 0
KCR1 301000Z 21017KT 27/21 A2972 RMK A01 T02650210  RH  072%=      5-min Rain = 0
KCR1 301001Z 20014KT 27/21 A2972 RMK A01 T02660210  RH  071%=      5-min Rain = 0
KCR1 301002Z 20013KT 27/21 A2972 RMK A01 T02660210  RH  071%=      5-min Rain = 0
KCR1 301003Z 20013KT 27/21 A2972 RMK A01 T02660210  RH  071%=      5-min Rain = 0
KCR1 301004Z 20013KT 27/21 A2972 RMK A01 T02660210  RH  072%=      5-min Rain = 0
KCR1 301005Z 20013KT 27/21 A2972 RMK A01 T02660210  RH  072%=      5-min Rain = 0
KCR1 301006Z 20014KT 27/21 A2972 RMK A01 T02650210  RH  072%=      5-min Rain = 0
KCR1 301007Z 21012KT 27/21 A2972 RMK A01 T02650210  RH  072%=      5-min Rain = 0
KCR1 301008Z 20014KT 27/21 A2972 RMK A01 T02650211  RH  072%=      5-min Rain = 0
KCR1 301009Z 21014KT 27/21 A2972 RMK A01 T02650211  RH  072%=      5-min Rain = 0
KCR1 301010Z 21014KT 27/21 A2972 RMK A01 T02650211  RH  072%=      5-min Rain = 0
KCR1 301011Z 21012KT 27/21 A2972 RMK A01 T02650211  RH  072%=      5-min Rain = 0
KCR1 301012Z 21014KT 26/21 A2972 RMK A01 T02640211  RH  072%=      5-min Rain = 0
KCR1 301013Z 21014KT 26/21 A2972 RMK A01 T02640211  RH  072%=      5-min Rain = 0
KCR1 301014Z 21011KT 27/21 A2973 RMK A01 T02650211  RH  072%=      5-min Rain = 0
KCR1 301015Z 21012KT 27/21 A2973 RMK A01 T02650211  RH  072%=      5-min Rain = 0
KCR1 301016Z 21011KT 27/21 A2973 RMK A01 T02650211  RH  072%=      5-min Rain = 0
KCR1 301017Z 21012KT 26/21 A2973 RMK A01 T02640211  RH  073%=      5-min Rain = 0
KCR1 301018Z 21014KT 26/21 A2973 RMK A01 T02640211  RH  073%=      5-min Rain = 0
KCR1 301019Z 21013KT 26/21 A2973 RMK A01 T02640211  RH  073%=      5-min Rain = 0
KCR1 301020Z 21012KT 26/21 A2973 RMK A01 T02640211  RH  072%=      5-min Rain = 0
KCR1 301021Z 21012KT 27/21 A2973 RMK A01 T02650211  RH  073%=      5-min Rain = 0
KCR1 301022Z 21014KT 26/21 A2973 RMK A01 T02640212  RH  073%=      5-min Rain = 0
KCR1 301023Z 21011KT 27/21 A2973 RMK A01 T02650212  RH  073%=      5-min Rain = 0
KCR1 301024Z 21012KT 26/21 A2973 RMK A01 T02640211  RH  073%=      5-min Rain = 0
KCR1 301025Z 21012KT 26/21 A2973 RMK A01 T02640212  RH  073%=      5-min Rain = 0
KCR1 301026Z 20013KT 26/21 A2973 RMK A01 T02640212  RH  073%=      5-min Rain = 0
KCR1 301027Z 21012KT 26/21 A2973 RMK A01 T02640212  RH  073%=      5-min Rain = 0
KCR1 301028Z 21011KT 26/21 A2973 RMK A01 T02640212  RH  073%=      5-min Rain = 0
KCR1 301029Z 21011KT 26/21 A2973 RMK A01 T02630212  RH  073%=      5-min Rain = 0
KCR1 301030Z 21012KT 26/21 A2973 RMK A01 T02630212  RH  074%=      5-min Rain = 0
KCR1 301031Z 21010KT 26/21 A2973 RMK A01 T02630212  RH  074%=      5-min Rain = 0
KCR1 301032Z 21013KT 26/21 A2973 RMK A01 T02620212  RH  074%=      5-min Rain = 0
KCR1 301033Z 21012KT 26/21 A2973 RMK A01 T02620212  RH  074%=      5-min Rain = 0
KCR1 301034Z 21010KT 26/21 A2973 RMK A01 T02620212  RH  074%=      5-min Rain = 0
KCR1 301035Z 21011KT 26/21 A2973 RMK A01 T02620212  RH  074%=      5-min Rain = 0
KCR1 301036Z 21010KT 26/21 A2973 RMK A01 T02620212  RH  074%=      5-min Rain = 0
KCR1 301037Z 21012KT 26/21 A2973 RMK A01 T02620212  RH  074%=      5-min Rain = 0
KCR1 301038Z 21012KT 26/21 A2972 RMK A01 T02620212  RH  074%=      5-min Rain = 0
KCR1 301039Z 21010KT 26/21 A2973 RMK A01 T02620212  RH  074%=      5-min Rain = 0
KCR1 301040Z 21012KT 26/21 A2973 RMK A01 T02620212  RH  074%=      5-min Rain = 0
KCR1 301041Z 21010KT 26/21 A2973 RMK A01 T02620212  RH  074%=      5-min Rain = 0
KCR1 301042Z 21010KT 26/21 A2972 RMK A01 T02610212  RH  074%=      5-min Rain = 0
KCR1 301043Z 21010KT 26/21 A2972 RMK A01 T02610212  RH  074%=      5-min Rain = 0
KCR1 301044Z 21012KT 26/21 A2972 RMK A01 T02610212  RH  075%=      5-min Rain = 0
KCR1 301045Z 21010KT 26/21 A2972 RMK A01 T02610213  RH  075%=      5-min Rain = 0
KCR1 301046Z 20011KT 26/21 A2972 RMK A01 T02610212  RH  075%=      5-min Rain = 0
KCR1 301047Z 20010KT 26/21 A2972 RMK A01 T02610212  RH  075%=      5-min Rain = 0
KCR1 301048Z 20012KT 26/21 A2972 RMK A01 T02610213  RH  075%=      5-min Rain = 0
KCR1 301049Z 20012KT 26/21 A2972 RMK A01 T02600212  RH  075%=      5-min Rain = 0
KCR1 301050Z 20013KT 26/21 A2973 RMK A01 T02610213  RH  075%=      5-min Rain = 0
KCR1 301051Z 21013KT 26/21 A2973 RMK A01 T02610213  RH  075%=      5-min Rain = 0
KCR1 301052Z 21012KT 26/21 A2973 RMK A01 T02610213  RH  075%=      5-min Rain = 0
KCR1 301053Z 21010KT 26/21 A2973 RMK A01 T02610213  RH  075%=      5-min Rain = 0
KCR1 301054Z 21011KT 26/21 A2973 RMK A01 T02610213  RH  075%=      5-min Rain = 0
KCR1 301055Z 21013KT 26/21 A2973 RMK A01 T02610213  RH  075%=      5-min Rain = 0
KCR1 301056Z 21013KT 26/21 A2973 RMK A01 T02610213  RH  075%=      5-min Rain = 0
KCR1 301057Z 21012KT 26/21 A2973 RMK A01 T02620213  RH  075%=      5-min Rain = 0
KCR1 301058Z 21013KT 26/21 A2973 RMK A01 T02620213  RH  075%=      5-min Rain = 0
KCR1 301059Z 21011KT 26/21 A2973 RMK A01 T02620213  RH  075%=      5-min Rain = 0
KCR1 301100Z 21011KT 26/21 A2973 RMK A01 T02620213  RH  075%=      5-min Rain = 0
KCR1 301101Z 21014KT 26/21 A2973 RMK A01 T02620214  RH  075%=      5-min Rain = 0
KCR1 301102Z 21013KT 26/21 A2973 RMK A01 T02620214  RH  075%=      5-min Rain = 0
KCR1 301103Z 21014KT 26/21 A2973 RMK A01 T02620214  RH  075%=      5-min Rain = 0
KCR1 301104Z 21011KT 26/21 A2973 RMK A01 T02620214  RH  075%=      5-min Rain = 0
KCR1 301105Z 21012KT 26/21 A2973 RMK A01 T02620214  RH  075%=      5-min Rain = 0
KCR1 301106Z 21013KT 26/21 A2973 RMK A01 T02610214  RH  075%=      5-min Rain = 0
KCR1 301107Z 21015KT 26/21 A2973 RMK A01 T02620214  RH  075%=      5-min Rain = 0
KCR1 301108Z 21011KT 26/21 A2973 RMK A01 T02620214  RH  075%=      5-min Rain = 0
KCR1 301109Z 21013KT 26/21 A2973 RMK A01 T02620214  RH  075%=      5-min Rain = 0
KCR1 301110Z 21013KT 26/21 A2973 RMK A01 T02620214  RH  075%=      5-min Rain = 0
KCR1 301111Z 21012KT 26/21 A2973 RMK A01 T02620214  RH  075%=      5-min Rain = 0
KCR1 301112Z 21012KT 26/21 A2973 RMK A01 T02620214  RH  075%=      5-min Rain = 0
KCR1 301113Z 21012KT 26/21 A2973 RMK A01 T02620214  RH  075%=      5-min Rain = 0
KCR1 301114Z 20013G19KT 26/22 A2973 RMK A01 T02620215  RH  075%=      5-min Rain = 0
KCR1 301115Z 21013KT 26/22 A2973 RMK A01 T02620215  RH  075%=      5-min Rain = 0
KCR1 301116Z 21013G18KT 26/21 A2973 RMK A01 T02620214  RH  075%=      5-min Rain = 0
KCR1 301117Z 21014KT 26/22 A2973 RMK A01 T02620215  RH  075%=      5-min Rain = 0
KCR1 301118Z 21014KT 26/21 A2973 RMK A01 T02620214  RH  075%=      5-min Rain = 0
KCR1 301119Z 21014KT 26/22 A2973 RMK A01 T02620215  RH  075%=      5-min Rain = 0
KCR1 301120Z 21013G18KT 26/21 A2973 RMK A01 T02620214  RH  075%=      5-min Rain = 0
KCR1 301121Z 21013KT 26/22 A2973 RMK A01 T02620215  RH  075%=      5-min Rain = 0
KCR1 301122Z 21015KT 26/22 A2973 RMK A01 T02620215  RH  075%=      5-min Rain = 0
KCR1 301123Z 21016KT 26/22 A2973 RMK A01 T02620215  RH  075%=      5-min Rain = 0
KCR1 301124Z 21014G20KT 26/22 A2973 RMK A01 T02620215  RH  075%=      5-min Rain = 0
KCR1 301125Z 20013KT 26/22 A2973 RMK A01 T02630215  RH  075%=      5-min Rain = 0
KCR1 301126Z 21011KT 26/22 A2973 RMK A01 T02620215  RH  075%=      5-min Rain = 0
KCR1 301127Z 20013KT 26/22 A2973 RMK A01 T02620215  RH  075%=      5-min Rain = 0
KCR1 301128Z 21012KT 26/22 A2973 RMK A01 T02610215  RH  076%=      5-min Rain = 0
KCR1 301129Z 21011KT 26/22 A2973 RMK A01 T02610215  RH  076%=      5-min Rain = 0
KCR1 301130Z 20014KT 26/22 A2973 RMK A01 T02610215  RH  076%=      5-min Rain = 0
KCR1 301131Z 21012KT 26/22 A2973 RMK A01 T02610215  RH  076%=      5-min Rain = 0
KCR1 301132Z 21011KT 26/22 A2973 RMK A01 T02610215  RH  076%=      5-min Rain = 0
KCR1 301133Z 21012KT 26/22 A2973 RMK A01 T02600215  RH  076%=      5-min Rain = 0
KCR1 301134Z 21011KT 26/22 A2973 RMK A01 T02600215  RH  076%=      5-min Rain = 0
KCR1 301135Z 21012KT 26/22 A2973 RMK A01 T02590215  RH  076%=      5-min Rain = 0
KCR1 301136Z 21013KT 26/22 A2973 RMK A01 T02600215  RH  076%=      5-min Rain = 0
KCR1 301137Z 20012KT 26/22 A2974 RMK A01 T02600215  RH  076%=      5-min Rain = 0
KCR1 301138Z 20015KT 26/22 A2974 RMK A01 T02600215  RH  076%=      5-min Rain = 0
KCR1 301139Z 20014KT 26/22 A2974 RMK A01 T02600215  RH  076%=      5-min Rain = 0
KCR1 301140Z 21012KT 26/22 A2974 RMK A01 T02610215  RH  076%=      5-min Rain = 0
KCR1 301141Z 21014KT 26/22 A2974 RMK A01 T02610216  RH  076%=      5-min Rain = 0
KCR1 301142Z 20013KT 26/22 A2974 RMK A01 T02610215  RH  076%=      5-min Rain = 0
KCR1 301143Z 20014KT 26/22 A2974 RMK A01 T02610215  RH  076%=      5-min Rain = 0
KCR1 301144Z 20016KT 26/22 A2974 RMK A01 T02610216  RH  076%=      5-min Rain = 0
KCR1 301145Z 20016G22KT 26/22 A2974 RMK A01 T02610216  RH  076%=      5-min Rain = 0
KCR1 301146Z 20013KT 26/22 A2974 RMK A01 T02620216  RH  076%=      5-min Rain = 0
KCR1 301147Z 21015KT 26/22 A2974 RMK A01 T02610216  RH  076%=      5-min Rain = 0
KCR1 301148Z 20013G19KT 26/22 A2974 RMK A01 T02610216  RH  076%=      5-min Rain = 0
KCR1 301149Z 20015KT 26/22 A2974 RMK A01 T02610216  RH  076%=      5-min Rain = 0
KCR1 301150Z 20013KT 26/22 A2974 RMK A01 T02610216  RH  076%=      5-min Rain = 0
KCR1 301151Z 20013KT 26/22 A2974 RMK A01 T02610216  RH  076%=      5-min Rain = 0
KCR1 301152Z 20015KT 26/22 A2974 RMK A01 T02610216  RH  076%=      5-min Rain = 0
KCR1 301153Z 20014KT 26/22 A2974 RMK A01 T02610216  RH  076%=      5-min Rain = 0
KCR1 301154Z 20013KT 26/22 A2974 RMK A01 T02610216  RH  076%=      5-min Rain = 0
KCR1 301155Z 20012KT 26/22 A2974 RMK A01 T02610216  RH  076%=      5-min Rain = 0
KCR1 301156Z 20014KT 26/22 A2974 RMK A01 T02600216  RH  076%=      5-min Rain = 0
KCR1 301157Z 20013KT 26/22 A2974 RMK A01 T02610216  RH  076%=      5-min Rain = 0
KCR1 301158Z 20014KT 26/22 A2974 RMK A01 T02600216  RH  077%=      5-min Rain = 0
KCR1 301159Z 20014KT 26/22 A2974 RMK A01 T02600216  RH  076%=      5-min Rain = 0
KCR1 301200Z 20014KT 26/22 A2974 RMK A01 T02610216  RH  076%=      5-min Rain = 0
KCR1 301201Z 20013KT 26/22 A2974 RMK A01 T02600216  RH  076%=      5-min Rain = 0
KCR1 301202Z 20011KT 26/22 A2974 RMK A01 T02610216  RH  076%=      5-min Rain = 0
KCR1 301203Z 21013KT 26/22 A2974 RMK A01 T02610216  RH  076%=      5-min Rain = 0
KCR1 301204Z 20014KT 26/22 A2974 RMK A01 T02610217  RH  077%=      5-min Rain = 0
KCR1 301205Z 20013KT 26/22 A2974 RMK A01 T02610217  RH  077%=      5-min Rain = 0
KCR1 301206Z 20012KT 26/22 A2974 RMK A01 T02610217  RH  076%=      5-min Rain = 0
KCR1 301207Z 20015KT 26/22 A2974 RMK A01 T02610216  RH  076%=      5-min Rain = 0
KCR1 301208Z 20013KT 26/22 A2974 RMK A01 T02610216  RH  076%=      5-min Rain = 0
KCR1 301209Z 20014KT 26/22 A2974 RMK A01 T02610216  RH  076%=      5-min Rain = 0
KCR1 301210Z 20015KT 26/22 A2974 RMK A01 T02620217  RH  076%=      5-min Rain = 0
KCR1 301211Z 21013KT 26/22 A2974 RMK A01 T02620217  RH  076%=      5-min Rain = 0
KCR1 301212Z 20013KT 26/22 A2974 RMK A01 T02620217  RH  076%=      5-min Rain = 0
KCR1 301213Z 20013KT 26/22 A2975 RMK A01 T02620217  RH  076%=      5-min Rain = 0
KCR1 301214Z 20017KT 26/22 A2974 RMK A01 T02620217  RH  076%=      5-min Rain = 0
KCR1 301215Z 20015KT 26/22 A2974 RMK A01 T02620217  RH  076%=      5-min Rain = 0
KCR1 301216Z 20013G18KT 26/22 A2974 RMK A01 T02630217  RH  076%=      5-min Rain = 0
KCR1 301217Z 20014KT 26/22 A2974 RMK A01 T02630217  RH  076%=      5-min Rain = 0
KCR1 301218Z 20012KT 26/22 A2975 RMK A01 T02630217  RH  076%=      5-min Rain = 0
KCR1 301219Z 20014KT 26/22 A2974 RMK A01 T02630217  RH  076%=      5-min Rain = 0
KCR1 301220Z 20016KT 26/22 A2974 RMK A01 T02630217  RH  076%=      5-min Rain = 0
KCR1 301221Z 21014KT 26/22 A2975 RMK A01 T02630217  RH  076%=      5-min Rain = 0
KCR1 301222Z 20013KT 26/22 A2975 RMK A01 T02630217  RH  076%=      5-min Rain = 0
KCR1 301223Z 20014KT 26/22 A2975 RMK A01 T02630217  RH  076%=      5-min Rain = 0
KCR1 301224Z 21014KT 26/22 A2975 RMK A01 T02630217  RH  076%=      5-min Rain = 0
KCR1 301225Z 20013KT 26/22 A2975 RMK A01 T02630218  RH  076%=      5-min Rain = 0
KCR1 301226Z 21013KT 26/22 A2975 RMK A01 T02640218  RH  076%=      5-min Rain = 0
KCR1 301227Z 20014KT 26/22 A2975 RMK A01 T02640218  RH  076%=      5-min Rain = 0
KCR1 301228Z 20014KT 26/22 A2975 RMK A01 T02640218  RH  076%=      5-min Rain = 0
KCR1 301229Z 20013KT 26/22 A2975 RMK A01 T02640218  RH  076%=      5-min Rain = 0
KCR1 301230Z 20013KT 27/22 A2975 RMK A01 T02650218  RH  076%=      5-min Rain = 0
KCR1 301231Z 20015KT 27/22 A2975 RMK A01 T02650218  RH  075%=      5-min Rain = 0
KCR1 301232Z 20017KT 27/22 A2975 RMK A01 T02650218  RH  075%=      5-min Rain = 0
KCR1 301233Z 20016KT 27/22 A2975 RMK A01 T02650218  RH  075%=      5-min Rain = 0
KCR1 301234Z 20015KT 27/22 A2975 RMK A01 T02660218  RH  075%=      5-min Rain = 0
KCR1 301235Z 20014KT 27/22 A2975 RMK A01 T02650218  RH  075%=      5-min Rain = 0
KCR1 301236Z 20012KT 27/22 A2975 RMK A01 T02660218  RH  075%=      5-min Rain = 0
KCR1 301237Z 21014KT 27/22 A2975 RMK A01 T02660219  RH  075%=      5-min Rain = 0
KCR1 301238Z 20016KT 27/22 A2975 RMK A01 T02670219  RH  075%=      5-min Rain = 0
KCR1 301239Z 20017KT 27/22 A2975 RMK A01 T02670218  RH  075%=      5-min Rain = 0
KCR1 301240Z 20016KT 27/22 A2975 RMK A01 T02670219  RH  075%=      5-min Rain = 0
KCR1 301241Z 20016KT 27/22 A2975 RMK A01 T02670219  RH  075%=      5-min Rain = 0
KCR1 301242Z 20017KT 27/22 A2975 RMK A01 T02680219  RH  074%=      5-min Rain = 0
KCR1 301243Z 21014KT 27/22 A2975 RMK A01 T02680219  RH  074%=      5-min Rain = 0
KCR1 301244Z 20016KT 27/22 A2975 RMK A01 T02680219  RH  074%=      5-min Rain = 0
KCR1 301245Z 20015KT 27/22 A2975 RMK A01 T02680219  RH  074%=      5-min Rain = 0
KCR1 301246Z 20018KT 27/22 A2975 RMK A01 T02680219  RH  074%=      5-min Rain = 0
KCR1 301247Z 20017KT 27/22 A2975 RMK A01 T02680219  RH  074%=      5-min Rain = 0
KCR1 301248Z 20016KT 27/22 A2975 RMK A01 T02690219  RH  074%=      5-min Rain = 0
KCR1 301249Z 20014KT 27/22 A2975 RMK A01 T02690219  RH  074%=      5-min Rain = 0
KCR1 301250Z 20015KT 27/22 A2975 RMK A01 T02690220  RH  074%=      5-min Rain = 0
KCR1 301251Z 20017KT 27/22 A2975 RMK A01 T02700219  RH  074%=      5-min Rain = 0
KCR1 301252Z 21014KT 27/22 A2975 RMK A01 T02700219  RH  074%=      5-min Rain = 0
KCR1 301253Z 21017KT 27/22 A2975 RMK A01 T02700220  RH  074%=      5-min Rain = 0
KCR1 301254Z 20017KT 27/22 A2975 RMK A01 T02700219  RH  074%=      5-min Rain = 0
KCR1 301255Z 20015KT 27/22 A2975 RMK A01 T02700219  RH  074%=      5-min Rain = 0
KCR1 301256Z 21015KT 27/22 A2975 RMK A01 T02710220  RH  074%=      5-min Rain = 0
KCR1 301257Z 20015KT 27/22 A2975 RMK A01 T02710220  RH  074%=      5-min Rain = 0
KCR1 301258Z 20018KT 27/22 A2975 RMK A01 T02720220  RH  073%=      5-min Rain = 0
KCR1 301259Z 20018KT 27/22 A2975 RMK A01 T02720220  RH  073%=      5-min Rain = 0
KCR1 301300Z 20016KT 27/22 A2975 RMK A01 T02720220  RH  073%=      5-min Rain = 0
KCR1 301301Z 21013G18KT 27/22 A2975 RMK A01 T02730221  RH  073%=      5-min Rain = 0
KCR1 301302Z 20018KT 27/22 A2975 RMK A01 T02730220  RH  073%=      5-min Rain = 0
KCR1 301303Z 20019KT 27/22 A2975 RMK A01 T02730220  RH  073%=      5-min Rain = 0
KCR1 301304Z 20015KT 27/22 A2975 RMK A01 T02730221  RH  073%=      5-min Rain = 0
KCR1 301305Z 21013KT 27/22 A2975 RMK A01 T02740221  RH  073%=      5-min Rain = 0
KCR1 301306Z 20015KT 28/22 A2975 RMK A01 T02750221  RH  073%=      5-min Rain = 0
KCR1 301307Z 21017KT 28/22 A2975 RMK A01 T02750221  RH  072%=      5-min Rain = 0
KCR1 301308Z 21015KT 28/22 A2975 RMK A01 T02750221  RH  072%=      5-min Rain = 0
KCR1 301309Z 21018KT 28/22 A2975 RMK A01 T02750221  RH  072%=      5-min Rain = 0
KCR1 301310Z 21015KT 28/22 A2975 RMK A01 T02750221  RH  072%=      5-min Rain = 0
KCR1 301311Z 20014KT 28/22 A2975 RMK A01 T02760222  RH  072%=      5-min Rain = 0
KCR1 301312Z 21018KT 28/22 A2975 RMK A01 T02770222  RH  072%=      5-min Rain = 0
KCR1 301313Z 22018G23KT 28/22 A2975 RMK A01 T02770221  RH  072%=      5-min Rain = 0
KCR1 301314Z 21017KT 28/22 A2975 RMK A01 T02760221  RH  072%=      5-min Rain = 0
KCR1 301315Z 21016KT 28/22 A2975 RMK A01 T02760221  RH  072%=      5-min Rain = 0
KCR1 301316Z 21015G20KT 28/22 A2975 RMK A01 T02760222  RH  072%=      5-min Rain = 0
KCR1 301317Z 21015KT 28/22 A2975 RMK A01 T02780222  RH  072%=      5-min Rain = 0
KCR1 301318Z 20016KT 28/22 A2975 RMK A01 T02780222  RH  071%=      5-min Rain = 0
KCR1 301319Z 21015KT 28/22 A2975 RMK A01 T02780222  RH  072%=      5-min Rain = 0
KCR1 301320Z 21016KT 28/22 A2975 RMK A01 T02780222  RH  072%=      5-min Rain = 0
KCR1 301321Z 21017KT 28/22 A2975 RMK A01 T02790222  RH  071%=      5-min Rain = 0
KCR1 301322Z 21018KT 28/22 A2975 RMK A01 T02790221  RH  071%=      5-min Rain = 0
KCR1 301323Z 20016KT 28/22 A2975 RMK A01 T02790222  RH  071%=      5-min Rain = 0
KCR1 301324Z 21017G22KT 28/22 A2975 RMK A01 T02790222  RH  071%=      5-min Rain = 0
KCR1 301325Z 22019KT 28/22 A2975 RMK A01 T02790222  RH  071%=      5-min Rain = 0
KCR1 301326Z 21016KT 28/22 A2975 RMK A01 T02790222  RH  071%=      5-min Rain = 0
KCR1 301327Z 21013KT 28/22 A2975 RMK A01 T02800223  RH  071%=      5-min Rain = 0
KCR1 301328Z 21016KT 28/22 A2975 RMK A01 T02820223  RH  070%=      5-min Rain = 0
KCR1 301329Z 22015KT 28/22 A2975 RMK A01 T02820223  RH  070%=      5-min Rain = 0
KCR1 301330Z 21015KT 28/22 A2975 RMK A01 T02820223  RH  070%=      5-min Rain = 0
KCR1 301331Z 21016KT 28/22 A2975 RMK A01 T02830224  RH  070%=      5-min Rain = 0
KCR1 301332Z 21018G23KT 28/22 A2975 RMK A01 T02840223  RH  070%=      5-min Rain = 0
KCR1 301333Z 21019KT 28/22 A2975 RMK A01 T02840222  RH  069%=      5-min Rain = 0
KCR1 301334Z 21019KT 28/22 A2975 RMK A01 T02820222  RH  070%=      5-min Rain = 0
KCR1 301335Z 21019KT 28/22 A2975 RMK A01 T02820222  RH  070%=      5-min Rain = 0
KCR1 301336Z 21018KT 28/22 A2975 RMK A01 T02820222  RH  070%=      5-min Rain = 0
KCR1 301337Z 21016KT 28/22 A2975 RMK A01 T02830223  RH  070%=      5-min Rain = 0
KCR1 301338Z 21018KT 28/22 A2975 RMK A01 T02840223  RH  069%=      5-min Rain = 0
KCR1 301339Z 22017KT 28/22 A2975 RMK A01 T02840223  RH  069%=      5-min Rain = 0
KCR1 301340Z 21016G21KT 28/22 A2975 RMK A01 T02840223  RH  070%=      5-min Rain = 0
KCR1 301341Z 22018KT 28/22 A2975 RMK A01 T02840222  RH  069%=      5-min Rain = 0
KCR1 301342Z 21016KT 28/22 A2975 RMK A01 T02840223  RH  069%=      5-min Rain = 0
KCR1 301343Z 20020G27KT 29/22 A2975 RMK A01 T02850223  RH  069%=      5-min Rain = 0
KCR1 301344Z 21020G25KT 29/22 A2975 RMK A01 T02850222  RH  069%=      5-min Rain = 0
KCR1 301345Z 22016KT 29/22 A2975 RMK A01 T02860223  RH  069%=      5-min Rain = 0
KCR1 301346Z 21018G24KT 29/22 A2975 RMK A01 T02860223  RH  069%=      5-min Rain = 0
KCR1 301347Z 22019G24KT 29/22 A2975 RMK A01 T02870223  RH  068%=      5-min Rain = 0
KCR1 301348Z 21019G24KT 29/22 A2975 RMK A01 T02860223  RH  069%=      5-min Rain = 0
KCR1 301349Z 21019KT 29/22 A2975 RMK A01 T02860222  RH  068%=      5-min Rain = 0
KCR1 301350Z 22018G23KT 29/22 A2975 RMK A01 T02870222  RH  068%=      5-min Rain = 0
KCR1 301351Z 21019G24KT 29/22 A2975 RMK A01 T02870223  RH  068%=      5-min Rain = 0
KCR1 301352Z 21020KT 29/22 A2975 RMK A01 T02870223  RH  068%=      5-min Rain = 0
KCR1 301353Z 21019KT 29/22 A2975 RMK A01 T02880222  RH  068%=      5-min Rain = 0
KCR1 301354Z 21017KT 29/22 A2975 RMK A01 T02890223  RH  068%=      5-min Rain = 0
KCR1 301355Z 21020KT 29/22 A2975 RMK A01 T02900223  RH  067%=      5-min Rain = 0
KCR1 301356Z 21018KT 29/22 A2975 RMK A01 T02890223  RH  067%=      5-min Rain = 0
KCR1 301357Z 22021KT 29/22 A2975 RMK A01 T02890223  RH  068%=      5-min Rain = 0
KCR1 301358Z 21017KT 29/22 A2975 RMK A01 T02890222  RH  067%=      5-min Rain = 0
KCR1 301359Z 21015KT 29/22 A2975 RMK A01 T02900224  RH  068%=      5-min Rain = 0
KCR1 301400Z 21017KT 29/22 A2975 RMK A01 T02920224  RH  067%=      5-min Rain = 0
KCR1 301401Z 22017KT 29/22 A2975 RMK A01 T02930223  RH  066%=      5-min Rain = 0
KCR1 301402Z 22015KT 29/22 A2975 RMK A01 T02910224  RH  067%=      5-min Rain = 0
KCR1 301403Z 22015KT 29/23 A2975 RMK A01 T02920225  RH  067%=      5-min Rain = 0
KCR1 301404Z 22021KT 29/22 A2975 RMK A01 T02940223  RH  066%=      5-min Rain = 0
KCR1 301405Z 22021KT 29/22 A2975 RMK A01 T02930222  RH  065%=      5-min Rain = 0
KCR1 301406Z 22016KT 29/22 A2975 RMK A01 T02910222  RH  066%=      5-min Rain = 0
KCR1 301407Z 21016G21KT 29/22 A2975 RMK A01 T02920224  RH  067%=      5-min Rain = 0
KCR1 301408Z 21020KT 29/22 A2975 RMK A01 T02930224  RH  066%=      5-min Rain = 0
KCR1 301409Z 21018KT 29/22 A2975 RMK A01 T02940223  RH  065%=      5-min Rain = 0
KCR1 301410Z 21016G21KT 30/22 A2975 RMK A01 T02950224  RH  066%=      5-min Rain = 0
KCR1 301411Z 22018KT 30/22 A2976 RMK A01 T02950223  RH  065%=      5-min Rain = 0
KCR1 301412Z 21019G25KT 30/22 A2976 RMK A01 T02950222  RH  065%=      5-min Rain = 0
KCR1 301413Z 22016KT 30/22 A2976 RMK A01 T02950223  RH  065%=      5-min Rain = 0
KCR1 301414Z 21014G20KT 30/22 A2976 RMK A01 T02950223  RH  065%=      5-min Rain = 0
KCR1 301415Z 21019KT 30/22 A2976 RMK A01 T02970223  RH  065%=      5-min Rain = 0
KCR1 301416Z 22017KT 30/22 A2976 RMK A01 T02970223  RH  065%=      5-min Rain = 0
KCR1 301417Z 21019KT 30/22 A2976 RMK A01 T02970223  RH  065%=      5-min Rain = 0
KCR1 301418Z 21020G25KT 30/22 A2976 RMK A01 T02970223  RH  064%=      5-min Rain = 0
KCR1 301419Z 21018KT 30/22 A2976 RMK A01 T02970223  RH  064%=      5-min Rain = 0
KCR1 301420Z 22020KT 30/22 A2976 RMK A01 T02980222  RH  064%=      5-min Rain = 0
KCR1 301421Z 21021G27KT 30/22 A2976 RMK A01 T02980221  RH  063%=      5-min Rain = 0
KCR1 301422Z 22017KT 30/22 A2976 RMK A01 T02970222  RH  064%=      5-min Rain = 0
KCR1 301423Z 21019KT 30/22 A2976 RMK A01 T02980222  RH  064%=      5-min Rain = 0
KCR1 301424Z 22016KT 30/22 A2976 RMK A01 T02980222  RH  064%=      5-min Rain = 0
KCR1 301425Z 22018KT 30/22 A2976 RMK A01 T02980223  RH  064%=      5-min Rain = 0
KCR1 301426Z 21018G24KT 30/22 A2976 RMK A01 T02990222  RH  063%=      5-min Rain = 0
KCR1 301427Z 21017G22KT 30/22 A2976 RMK A01 T03000224  RH  063%=      5-min Rain = 0
KCR1 301428Z 21018KT 30/22 A2976 RMK A01 T03010223  RH  063%=      5-min Rain = 0
KCR1 301429Z 21019KT 30/22 A2976 RMK A01 T03020222  RH  063%=      5-min Rain = 0
KCR1 301430Z 21019KT 30/22 A2976 RMK A01 T03010223  RH  063%=      5-min Rain = 0
KCR1 301431Z 21017KT 30/22 A2976 RMK A01 T03010222  RH  063%=      5-min Rain = 0
KCR1 301432Z 22018KT 30/22 A2976 RMK A01 T03010222  RH  063%=      5-min Rain = 0
KCR1 301433Z 21018G24KT 30/22 A2976 RMK A01 T03010222  RH  063%=      5-min Rain = 0
KCR1 301434Z 22019KT 30/22 A2976 RMK A01 T03010221  RH  062%=      5-min Rain = 0
KCR1 301435Z 22016G21KT 30/22 A2976 RMK A01 T03020222  RH  062%=      5-min Rain = 0
KCR1 301436Z 22013KT 30/22 A2976 RMK A01 T03030224  RH  062%=      5-min Rain = 0
KCR1 301437Z 21015KT 31/22 A2976 RMK A01 T03070224  RH  061%=      5-min Rain = 0
KCR1 301438Z 22014KT 31/22 A2976 RMK A01 T03090224  RH  061%=      5-min Rain = 0
KCR1 301439Z 22017KT 31/22 A2976 RMK A01 T03100223  RH  060%=      5-min Rain = 0
KCR1 301440Z 21015KT 31/22 A2976 RMK A01 T03100224  RH  060%=      5-min Rain = 0
KCR1 301441Z 21018KT 31/22 A2976 RMK A01 T03100223  RH  060%=      5-min Rain = 0
KCR1 301442Z 22017G22KT 31/22 A2976 RMK A01 T03070222  RH  060%=      5-min Rain = 0
KCR1 301443Z 22015G20KT 31/22 A2976 RMK A01 T03070224  RH  061%=      5-min Rain = 0
KCR1 301444Z 22018KT 31/22 A2976 RMK A01 T03090223  RH  060%=      5-min Rain = 0
KCR1 301445Z 21019KT 31/22 A2976 RMK A01 T03090222  RH  060%=      5-min Rain = 0
KCR1 301446Z 22018KT 31/22 A2976 RMK A01 T03090222  RH  060%=      5-min Rain = 0
KCR1 301447Z 22016KT 31/22 A2976 RMK A01 T03090223  RH  060%=      5-min Rain = 0
KCR1 301448Z 21016KT 31/22 A2976 RMK A01 T03100223  RH  060%=      5-min Rain = 0
KCR1 301449Z 21018KT 31/22 A2976 RMK A01 T03100223  RH  060%=      5-min Rain = 0
KCR1 301450Z 22014KT 31/22 A2976 RMK A01 T03100223  RH  060%=      5-min Rain = 0
KCR1 301451Z 22017KT 31/22 A2976 RMK A01 T03110222  RH  059%=      5-min Rain = 0
KCR1 301452Z 22019KT 31/22 A2976 RMK A01 T03110221  RH  059%=      5-min Rain = 0
KCR1 301453Z 23017KT 31/22 A2976 RMK A01 T03080221  RH  060%=      5-min Rain = 0
KCR1 301454Z 21013KT 31/22 A2976 RMK A01 T03080222  RH  060%=      5-min Rain = 0
KCR1 301455Z 22017KT 31/22 A2976 RMK A01 T03100222  RH  059%=      5-min Rain = 0
KCR1 301456Z 22017G22KT 31/22 A2976 RMK A01 T03110220  RH  058%=      5-min Rain = 0
KCR1 301457Z 22017KT 31/22 A2976 RMK A01 T03120221  RH  058%=      5-min Rain = 0
KCR1 301458Z 23014G19KT 31/22 A2976 RMK A01 T03130221  RH  058%=      5-min Rain = 0
KCR1 301459Z 23018KT 31/22 A2976 RMK A01 T03140220  RH  058%=      5-min Rain = 0
KCR1 301500Z 22016G21KT 31/22 A2976 RMK A01 T03130221  RH  058%=      5-min Rain = 0
KCR1 301501Z 22017KT 31/22 A2976 RMK A01 T03130221  RH  058%=      5-min Rain = 0
KCR1 301502Z 22019KT 31/22 A2976 RMK A01 T03130221  RH  058%=      5-min Rain = 0
KCR1 301503Z 22017KT 31/22 A2976 RMK A01 T03120220  RH  058%=      5-min Rain = 0
KCR1 301504Z 22016KT 31/22 A2976 RMK A01 T03120221  RH  058%=      5-min Rain = 0
KCR1 301505Z 23020KT 32/22 A2976 RMK A01 T03150220  RH  057%=      5-min Rain = 0
KCR1 301506Z 23016KT 31/22 A2976 RMK A01 T03130220  RH  058%=      5-min Rain = 0
KCR1 301507Z 24018KT 31/22 A2976 RMK A01 T03140221  RH  058%=      5-min Rain = 0
KCR1 301508Z 23018KT 31/22 A2976 RMK A01 T03140219  RH  057%=      5-min Rain = 0
KCR1 301509Z 22017KT 32/22 A2976 RMK A01 T03150221  RH  058%=      5-min Rain = 0
KCR1 301510Z 22020KT 32/22 A2976 RMK A01 T03150220  RH  057%=      5-min Rain = 0
KCR1 301511Z 22016KT 32/22 A2976 RMK A01 T03150221  RH  057%=      5-min Rain = 0
KCR1 301512Z 22018G23KT 32/22 A2976 RMK A01 T03150220  RH  057%=      5-min Rain = 0
KCR1 301513Z 22016KT 32/22 A2976 RMK A01 T03150220  RH  057%=      5-min Rain = 0
KCR1 301514Z 23014KT 32/22 A2976 RMK A01 T03170222  RH  057%=      5-min Rain = 0
KCR1 301515Z 23018G24KT 32/22 A2976 RMK A01 T03180220  RH  056%=      5-min Rain = 0
KCR1 301516Z 22017G22KT 32/22 A2976 RMK A01 T03170220  RH  056%=      5-min Rain = 0
KCR1 301517Z 22017KT 32/22 A2976 RMK A01 T03170220  RH  057%=      5-min Rain = 0
KCR1 301518Z 22018KT 32/22 A2976 RMK A01 T03180220  RH  056%=      5-min Rain = 0
KCR1 301519Z 22020KT 32/22 A2976 RMK A01 T03190220  RH  056%=      5-min Rain = 0
KCR1 301520Z 23018KT 32/22 A2976 RMK A01 T03180220  RH  056%=      5-min Rain = 0
KCR1 301521Z 22014KT 32/22 A2976 RMK A01 T03170221  RH  057%=      5-min Rain = 0
KCR1 301522Z 23014KT 32/22 A2976 RMK A01 T03190221  RH  056%=      5-min Rain = 0
KCR1 301523Z 23017KT 32/22 A2976 RMK A01 T03200219  RH  055%=      5-min Rain = 0
KCR1 301524Z 23014KT 32/22 A2976 RMK A01 T03210219  RH  055%=      5-min Rain = 0
KCR1 301525Z 24016KT 32/22 A2976 RMK A01 T03220219  RH  054%=      5-min Rain = 0
KCR1 301526Z 24015KT 32/22 A2976 RMK A01 T03230218  RH  054%=      5-min Rain = 0
KCR1 301527Z 21014KT 32/22 A2976 RMK A01 T03220221  RH  055%=      5-min Rain = 0
KCR1 301528Z 22014KT 32/22 A2976 RMK A01 T03230222  RH  055%=      5-min Rain = 0
KCR1 301529Z 22015KT 33/22 A2976 RMK A01 T03250222  RH  055%=      5-min Rain = 0
KCR1 301530Z 22016KT 33/22 A2976 RMK A01 T03270222  RH  054%=      5-min Rain = 0
KCR1 301531Z 22016KT 33/22 A2976 RMK A01 T03270221  RH  054%=      5-min Rain = 0
KCR1 301532Z 22014KT 33/22 A2976 RMK A01 T03260222  RH  054%=      5-min Rain = 0
KCR1 301533Z 23016G22KT 33/22 A2976 RMK A01 T03270219  RH  053%=      5-min Rain = 0
KCR1 301534Z 23016KT 33/22 A2976 RMK A01 T03270218  RH  053%=      5-min Rain = 0
KCR1 301535Z 23012KT 33/22 A2976 RMK A01 T03270219  RH  053%=      5-min Rain = 0
KCR1 301536Z 23016KT 33/22 A2976 RMK A01 T03290219  RH  052%=      5-min Rain = 0
KCR1 301537Z 23015KT 33/22 A2976 RMK A01 T03280219  RH  053%=      5-min Rain = 0
KCR1 301538Z 22018KT 33/22 A2975 RMK A01 T03270219  RH  053%=      5-min Rain = 0
KCR1 301539Z 21017G22KT 33/22 A2976 RMK A01 T03260219  RH  053%=      5-min Rain = 0
KCR1 301540Z 21018KT 33/22 A2975 RMK A01 T03260218  RH  053%=      5-min Rain = 0
KCR1 301541Z 21015G21KT 33/22 A2975 RMK A01 T03280220  RH  053%=      5-min Rain = 0
KCR1 301542Z 22017KT 33/22 A2975 RMK A01 T03290218  RH  052%=      5-min Rain = 0
KCR1 301543Z 21015KT 33/22 A2975 RMK A01 T03280220  RH  053%=      5-min Rain = 0
KCR1 301544Z 22015KT 33/22 A2975 RMK A01 T03290221  RH  053%=      5-min Rain = 0
KCR1 301545Z 22016KT 33/22 A2975 RMK A01 T03320221  RH  052%=      5-min Rain = 0
KCR1 301546Z 21018KT 33/22 A2975 RMK A01 T03330219  RH  051%=      5-min Rain = 0
KCR1 301547Z 21017KT 33/22 A2975 RMK A01 T03340219  RH  051%=      5-min Rain = 0
KCR1 301548Z 22015KT 33/22 A2975 RMK A01 T03320219  RH  052%=      5-min Rain = 0
KCR1 301549Z 22017KT 33/22 A2975 RMK A01 T03310220  RH  052%=      5-min Rain = 0
KCR1 301550Z 22017KT 33/22 A2975 RMK A01 T03300221  RH  053%=      5-min Rain = 0
KCR1 301551Z 22014KT 33/22 A2976 RMK A01 T03300220  RH  052%=      5-min Rain = 0
KCR1 301552Z 22014KT 33/22 A2976 RMK A01 T03300220  RH  052%=      5-min Rain = 0
KCR1 301553Z 22017G22KT 33/22 A2976 RMK A01 T03320220  RH  052%=      5-min Rain = 0
KCR1 301554Z 22016G21KT 33/22 A2976 RMK A01 T03330219  RH  051%=      5-min Rain = 0
KCR1 301555Z 21016G21KT 33/22 A2976 RMK A01 T03330219  RH  051%=      5-min Rain = 0
KCR1 301556Z 20017KT 33/22 A2976 RMK A01 T03330220  RH  052%=      5-min Rain = 0
KCR1 301557Z 20017KT 33/22 A2976 RMK A01 T03330220  RH  052%=      5-min Rain = 0
KCR1 301558Z 20017KT 33/22 A2976 RMK A01 T03330220  RH  051%=      5-min Rain = 0
KCR1 301559Z 21015KT 33/22 A2976 RMK A01 T03340221  RH  051%=      5-min Rain = 0
KCR1 301600Z 22014G19KT 34/22 A2976 RMK A01 T03360220  RH  051%=      5-min Rain = 0
KCR1 301601Z 22015KT 34/22 A2976 RMK A01 T03360219  RH  050%=      5-min Rain = 0
KCR1 301602Z 23016G21KT 34/22 A2976 RMK A01 T03370219  RH  050%=      5-min Rain = 0
KCR1 301603Z 23013KT 34/22 A2976 RMK A01 T03390219  RH  050%=      5-min Rain = 0
KCR1 301604Z 23015KT 34/22 A2976 RMK A01 T03400217  RH  049%=      5-min Rain = 0
KCR1 301605Z 21016G21KT 34/22 A2976 RMK A01 T03390219  RH  049%=      5-min Rain = 0
KCR1 301606Z 21015KT 34/22 A2976 RMK A01 T03400219  RH  049%=      5-min Rain = 0
KCR1 301607Z 21013KT 34/22 A2976 RMK A01 T03410221  RH  050%=      5-min Rain = 0
KCR1 301608Z 23016KT 34/22 A2976 RMK A01 T03440219  RH  048%=      5-min Rain = 0
KCR1 301609Z 21014KT 34/22 A2976 RMK A01 T03430220  RH  049%=      5-min Rain = 0
KCR1 301610Z 21013KT 34/22 A2976 RMK A01 T03430220  RH  049%=      5-min Rain = 0
KCR1 301611Z 21014KT 34/22 A2976 RMK A01 T03430221  RH  049%=      5-min Rain = 0
KCR1 301612Z 21014KT 34/22 A2976 RMK A01 T03430220  RH  049%=      5-min Rain = 0
KCR1 301613Z 23014KT 34/22 A2976 RMK A01 T03420215  RH  048%=      5-min Rain = 0
KCR1 301614Z 24013KT 34/22 A2976 RMK A01 T03420217  RH  048%=      5-min Rain = 0
KCR1 301615Z 24013KT 34/22 A2976 RMK A01 T03430217  RH  048%=      5-min Rain = 0
KCR1 301616Z 23015KT 34/22 A2976 RMK A01 T03440216  RH  047%=      5-min Rain = 0
KCR1 301617Z 22013KT 34/22 A2976 RMK A01 T03430216  RH  048%=      5-min Rain = 0
KCR1 301618Z 23012KT 35/22 A2976 RMK A01 T03450219  RH  048%=      5-min Rain = 0
KCR1 301619Z 24013KT 35/22 A2976 RMK A01 T03460217  RH  047%=      5-min Rain = 0
KCR1 301620Z 23015G21KT 35/22 A2976 RMK A01 T03450216  RH  047%=      5-min Rain = 0
KCR1 301621Z 22012KT 35/21 A2976 RMK A01 T03450214  RH  046%=      5-min Rain = 0
KCR1 301622Z 22012KT 35/22 A2976 RMK A01 T03460215  RH  047%=      5-min Rain = 0
KCR1 301623Z 23013KT 35/22 A2976 RMK A01 T03470217  RH  047%=      5-min Rain = 0
KCR1 301624Z 22017KT 35/22 A2976 RMK A01 T03470218  RH  047%=      5-min Rain = 0
KCR1 301625Z 23015KT 35/22 A2976 RMK A01 T03460216  RH  047%=      5-min Rain = 0
KCR1 301626Z 23015KT 35/22 A2976 RMK A01 T03450216  RH  047%=      5-min Rain = 0
KCR1 301627Z 22014KT 34/22 A2976 RMK A01 T03430215  RH  047%=      5-min Rain = 0
KCR1 301628Z 22016KT 34/21 A2976 RMK A01 T03420214  RH  047%=      5-min Rain = 0
KCR1 301629Z 22015KT 34/22 A2976 RMK A01 T03430215  RH  047%=      5-min Rain = 0
KCR1 301630Z 21014KT 35/22 A2976 RMK A01 T03450216  RH  047%=      5-min Rain = 0
KCR1 301631Z 21015KT 35/21 A2976 RMK A01 T03470214  RH  046%=      5-min Rain = 0
KCR1 301632Z 21015KT 35/22 A2976 RMK A01 T03460217  RH  047%=      5-min Rain = 0
KCR1 301633Z 21016KT 35/22 A2976 RMK A01 T03480216  RH  046%=      5-min Rain = 0
KCR1 301634Z 21013KT 35/22 A2976 RMK A01 T03490215  RH  046%=      5-min Rain = 0
KCR1 301635Z 22015KT 35/21 A2976 RMK A01 T03500214  RH  045%=      5-min Rain = 0
KCR1 301636Z 22009KT 35/22 A2976 RMK A01 T03490215  RH  046%=      5-min Rain = 0
KCR1 301637Z 22011KT 35/22 A2976 RMK A01 T03510218  RH  046%=      5-min Rain = 0
KCR1 301638Z 21013KT 35/22 A2976 RMK A01 T03530219  RH  046%=      5-min Rain = 0
KCR1 301639Z 21017KT 35/22 A2976 RMK A01 T03540217  RH  045%=      5-min Rain = 0
KCR1 301640Z 22016KT 35/22 A2976 RMK A01 T03530215  RH  045%=      5-min Rain = 0
KCR1 301641Z 23014KT 35/21 A2976 RMK A01 T03500213  RH  045%=      5-min Rain = 0
KCR1 301642Z 23009KT 35/22 A2976 RMK A01 T03480215  RH  046%=      5-min Rain = 0
KCR1 301643Z 23011KT 35/22 A2976 RMK A01 T03510216  RH  046%=      5-min Rain = 0
KCR1 301644Z 22013KT 35/22 A2976 RMK A01 T03520217  RH  046%=      5-min Rain = 0
KCR1 301645Z 21015KT 35/22 A2976 RMK A01 T03520216  RH  045%=      5-min Rain = 0
KCR1 301646Z 20013KT 35/21 A2976 RMK A01 T03540214  RH  044%=      5-min Rain = 0
KCR1 301647Z 20014KT 35/22 A2976 RMK A01 T03540215  RH  045%=      5-min Rain = 0
KCR1 301648Z 22016KT 36/22 A2976 RMK A01 T03560215  RH  044%=      5-min Rain = 0
KCR1 301649Z 23011KT 36/21 A2976 RMK A01 T03550211  RH  043%=      5-min Rain = 0
KCR1 301650Z 21014G21KT 36/21 A2976 RMK A01 T03560214  RH  044%=      5-min Rain = 0
KCR1 301651Z 22015G20KT 36/21 A2976 RMK A01 T03560209  RH  042%=      5-min Rain = 0
KCR1 301652Z 23014KT 36/21 A2976 RMK A01 T03550211  RH  043%=      5-min Rain = 0
KCR1 301653Z 23014KT 36/21 A2976 RMK A01 T03560210  RH  043%=      5-min Rain = 0
KCR1 301654Z 24012KT 36/21 A2976 RMK A01 T03550211  RH  043%=      5-min Rain = 0
KCR1 301655Z 25012KT 35/21 A2976 RMK A01 T03540212  RH  044%=      5-min Rain = 0
KCR1 301656Z 23014KT 35/21 A2976 RMK A01 T03540212  RH  044%=      5-min Rain = 0
KCR1 301657Z 22014KT 36/21 A2976 RMK A01 T03560214  RH  044%=      5-min Rain = 0
KCR1 301658Z 21014KT 36/21 A2976 RMK A01 T03570212  RH  043%=      5-min Rain = 0
KCR1 301659Z 23013KT 36/21 A2976 RMK A01 T03560212  RH  043%=      5-min Rain = 0
KCR1 301700Z 23015KT 36/21 A2976 RMK A01 T03550213  RH  044%=      5-min Rain = 0
KCR1 301701Z 21014KT 36/21 A2976 RMK A01 T03550214  RH  044%=      5-min Rain = 0
KCR1 301702Z 23015G20KT 36/21 A2976 RMK A01 T03560213  RH  043%=      5-min Rain = 0
KCR1 301703Z 22013G19KT 36/21 A2976 RMK A01 T03580214  RH  043%=      5-min Rain = 0
KCR1 301704Z 23018KT 36/21 A2976 RMK A01 T03590210  RH  042%=      5-min Rain = 0
KCR1 301705Z 22016KT 36/21 A2976 RMK A01 T03570209  RH  042%=      5-min Rain = 0
KCR1 301706Z 23013KT 36/21 A2976 RMK A01 T03570209  RH  042%=      5-min Rain = 0
KCR1 301707Z 23014KT 36/21 A2976 RMK A01 T03580209  RH  042%=      5-min Rain = 0
KCR1 301708Z 23012KT 36/21 A2976 RMK A01 T03580209  RH  042%=      5-min Rain = 0
KCR1 301709Z 22009KT 36/21 A2976 RMK A01 T03620209  RH  041%=      5-min Rain = 0
KCR1 301710Z 22009KT 36/21 A2976 RMK A01 T03630212  RH  042%=      5-min Rain = 0
KCR1 301711Z 22013KT 36/21 A2976 RMK A01 T03630212  RH  042%=      5-min Rain = 0
KCR1 301712Z 23014KT 36/21 A2976 RMK A01 T03600212  RH  042%=      5-min Rain = 0
KCR1 301713Z 23015KT 36/21 A2976 RMK A01 T03620210  RH  041%=      5-min Rain = 0
KCR1 301714Z 23015KT 36/21 A2976 RMK A01 T03630205  RH  040%=      5-min Rain = 0
KCR1 301715Z 22013KT 36/20 A2976 RMK A01 T03620204  RH  040%=      5-min Rain = 0
KCR1 301716Z 23010KT 36/21 A2976 RMK A01 T03610206  RH  041%=      5-min Rain = 0
KCR1 301717Z 23013KT 36/21 A2976 RMK A01 T03640208  RH  041%=      5-min Rain = 0
KCR1 301718Z 22015KT 36/21 A2976 RMK A01 T03640210  RH  041%=      5-min Rain = 0
KCR1 301719Z 21012G20KT 36/21 A2975 RMK A01 T03630212  RH  041%=      5-min Rain = 0
KCR1 301720Z 23017KT 37/21 A2976 RMK A01 T03650208  RH  040%=      5-min Rain = 0
KCR1 301721Z 23015KT 37/20 A2976 RMK A01 T03650203  RH  039%=      5-min Rain = 0
KCR1 301722Z 23014KT 36/20 A2975 RMK A01 T03610203  RH  040%=      5-min Rain = 0
KCR1 301723Z 22012KT 36/21 A2975 RMK A01 T03600207  RH  041%=      5-min Rain = 0
KCR1 301724Z 22013KT 36/21 A2975 RMK A01 T03620208  RH  041%=      5-min Rain = 0
KCR1 301725Z 22015KT 37/21 A2975 RMK A01 T03650205  RH  040%=      5-min Rain = 0
KCR1 301726Z 22017KT 36/21 A2975 RMK A01 T03640205  RH  039%=      5-min Rain = 0
KCR1 301727Z 22014KT 36/20 A2975 RMK A01 T03630204  RH  040%=      5-min Rain = 0
KCR1 301728Z 21012KT 36/21 A2975 RMK A01 T03610205  RH  040%=      5-min Rain = 0
KCR1 301729Z 20013G20KT 36/21 A2975 RMK A01 T03630206  RH  040%=      5-min Rain = 0
KCR1 301730Z 21013KT 37/21 A2975 RMK A01 T03660206  RH  039%=      5-min Rain = 0
KCR1 301731Z 20011KT 37/21 A2975 RMK A01 T03690206  RH  039%=      5-min Rain = 0
KCR1 301732Z 22013G18KT 37/21 A2975 RMK A01 T03710205  RH  038%=      5-min Rain = 0
KCR1 301733Z 24014KT 37/20 A2975 RMK A01 T03710196  RH  036%=      5-min Rain = 0
KCR1 301734Z 23011KT 37/20 A2975 RMK A01 T03670200  RH  038%=      5-min Rain = 0
KCR1 301735Z 22010KT 37/20 A2975 RMK A01 T03670200  RH  038%=      5-min Rain = 0
KCR1 301736Z 22010KT 37/20 A2975 RMK A01 T03680202  RH  038%=      5-min Rain = 0
KCR1 301737Z 23011KT 37/20 A2975 RMK A01 T03670203  RH  039%=      5-min Rain = 0
KCR1 301738Z 23013G19KT 37/20 A2975 RMK A01 T03700204  RH  038%=      5-min Rain = 0
KCR1 301739Z 23016KT 37/20 A2975 RMK A01 T03720201  RH  037%=      5-min Rain = 0
KCR1 301740Z 23018KT 37/20 A2975 RMK A01 T03720199  RH  037%=      5-min Rain = 0
KCR1 301741Z 23014KT 37/20 A2975 RMK A01 T03710196  RH  036%=      5-min Rain = 0
KCR1 301742Z 23013KT 37/20 A2975 RMK A01 T03710200  RH  037%=      5-min Rain = 0
KCR1 301743Z 24009KT 37/20 A2976 RMK A01 T03700201  RH  037%=      5-min Rain = 0
KCR1 301744Z 24012KT 37/20 A2975 RMK A01 T03740203  RH  037%=      5-min Rain = 0
KCR1 301745Z 24011KT 37/20 A2975 RMK A01 T03740200  RH  036%=      5-min Rain = 0
KCR1 301746Z 23009KT 37/20 A2975 RMK A01 T03710198  RH  036%=      5-min Rain = 0
KCR1 301747Z 23010G17KT 37/20 A2975 RMK A01 T03680199  RH  037%=      5-min Rain = 0
KCR1 301748Z 22014KT 37/20 A2975 RMK A01 T03720201  RH  037%=      5-min Rain = 0
KCR1 301749Z 23013KT 38/20 A2975 RMK A01 T03750200  RH  036%=      5-min Rain = 0
KCR1 301750Z 24014KT 37/20 A2975 RMK A01 T03740197  RH  036%=      5-min Rain = 0
KCR1 301751Z 23010KT 37/20 A2975 RMK A01 T03730201  RH  037%=      5-min Rain = 0
KCR1 301752Z 23009KT 37/20 A2975 RMK A01 T03740202  RH  037%=      5-min Rain = 0
KCR1 301753Z 23013KT 38/20 A2975 RMK A01 T03750203  RH  037%=      5-min Rain = 0
KCR1 301754Z 23013KT 38/20 A2975 RMK A01 T03790199  RH  035%=      5-min Rain = 0
KCR1 301755Z 24013KT 38/19 A2975 RMK A01 T03820194  RH  034%=      5-min Rain = 0
KCR1 301756Z 25009KT 38/19 A2975 RMK A01 T03810191  RH  033%=      5-min Rain = 0
KCR1 301757Z 25008KT 38/19 A2975 RMK A01 T03760193  RH  034%=      5-min Rain = 0
KCR1 301758Z 26008G13KT 37/20 A2975 RMK A01 T03740198  RH  036%=      5-min Rain = 0
KCR1 301759Z 24010KT 37/20 A2975 RMK A01 T03730198  RH  036%=      5-min Rain = 0
KCR1 301800Z 22012KT 38/20 A2975 RMK A01 T03750196  RH  035%=      5-min Rain = 0
KCR1 301801Z 23014KT 38/20 A2975 RMK A01 T03770196  RH  035%=      5-min Rain = 0
KCR1 301802Z 24014KT 38/19 A2975 RMK A01 T03780186  RH  033%=      5-min Rain = 0
KCR1 301803Z 25013KT 38/18 A2975 RMK A01 T03770180  RH  032%=      5-min Rain = 0
KCR1 301804Z 24011KT 38/19 A2975 RMK A01 T03770185  RH  033%=      5-min Rain = 0
KCR1 301805Z 24012KT 38/18 A2975 RMK A01 T03780183  RH  032%=      5-min Rain = 0
KCR1 301806Z 25013KT 38/19 A2975 RMK A01 T03770187  RH  033%=      5-min Rain = 0
KCR1 301807Z 25011KT 38/19 A2975 RMK A01 T03760186  RH  033%=      5-min Rain = 0
KCR1 301808Z 24010KT 38/19 A2975 RMK A01 T03770189  RH  033%=      5-min Rain = 0
KCR1 301809Z 23013KT 38/19 A2975 RMK A01 T03780187  RH  033%=      5-min Rain = 0
KCR1 301810Z 22012KT 38/19 A2975 RMK A01 T03790190  RH  033%=      5-min Rain = 0
KCR1 301811Z 22012KT 38/19 A2975 RMK A01 T03810188  RH  033%=      5-min Rain = 0
KCR1 301812Z 22010KT 38/19 A2975 RMK A01 T03810190  RH  033%=      5-min Rain = 0
KCR1 301813Z 22009KT 38/19 A2975 RMK A01 T03810190  RH  033%=      5-min Rain = 0
KCR1 301814Z 22009KT 38/19 A2975 RMK A01 T03810191  RH  033%=      5-min Rain = 0
KCR1 301815Z 22014KT 38/19 A2975 RMK A01 T03830190  RH  033%=      5-min Rain = 0
KCR1 301816Z 24014KT 38/19 A2975 RMK A01 T03840188  RH  032%=      5-min Rain = 0
KCR1 301817Z 26013KT 38/19 A2975 RMK A01 T03830189  RH  032%=      5-min Rain = 0
KCR1 301818Z 27009KT 38/19 A2975 RMK A01 T03810188  RH  032%=      5-min Rain = 0
KCR1 301819Z 25009KT 38/19 A2974 RMK A01 T03800187  RH  032%=      5-min Rain = 0
KCR1 301820Z 25008KT 38/19 A2974 RMK A01 T03790187  RH  033%=      5-min Rain = 0
KCR1 301821Z 21009KT 38/19 A2974 RMK A01 T03810192  RH  033%=      5-min Rain = 0
KCR1 301822Z 22012KT 39/19 A2974 RMK A01 T03880191  RH  032%=      5-min Rain = 0
KCR1 301823Z 22014KT 39/19 A2974 RMK A01 T03880187  RH  031%=      5-min Rain = 0
KCR1 301824Z 22014KT 39/18 A2974 RMK A01 T03860184  RH  031%=      5-min Rain = 0
KCR1 301825Z 22008KT 38/18 A2974 RMK A01 T03840181  RH  031%=      5-min Rain = 0
KCR1 301826Z 22011KT 39/18 A2974 RMK A01 T03850184  RH  031%=      5-min Rain = 0
KCR1 301827Z 21013KT 39/18 A2974 RMK A01 T03870183  RH  031%=      5-min Rain = 0
KCR1 301828Z 23015KT 39/18 A2974 RMK A01 T03890184  RH  030%=      5-min Rain = 0
KCR1 301829Z 22010KT 39/18 A2974 RMK A01 T03870183  RH  030%=      5-min Rain = 0
KCR1 301830Z 23009KT 39/18 A2974 RMK A01 T03880184  RH  031%=      5-min Rain = 0
KCR1 301831Z 24013KT 39/19 A2974 RMK A01 T03900185  RH  030%=      5-min Rain = 0
KCR1 301832Z 24013KT 39/18 A2974 RMK A01 T03900181  RH  030%=      5-min Rain = 0
KCR1 301833Z 23011KT 39/18 A2974 RMK A01 T03870180  RH  030%=      5-min Rain = 0
KCR1 301834Z 24008KT 39/18 A2974 RMK A01 T03880180  RH  030%=      5-min Rain = 0
KCR1 301835Z 22011KT 39/18 A2974 RMK A01 T03900182  RH  030%=      5-min Rain = 0
KCR1 301836Z 21011KT 39/19 A2974 RMK A01 T03910185  RH  030%=      5-min Rain = 0
KCR1 301837Z 20010KT 39/18 A2974 RMK A01 T03880184  RH  031%=      5-min Rain = 0
KCR1 301838Z 21007KT 39/18 A2974 RMK A01 T03850182  RH  031%=      5-min Rain = 0
KCR1 301839Z 21012KT 39/19 A2974 RMK A01 T03860186  RH  031%=      5-min Rain = 0
KCR1 301840Z 23012KT 39/18 A2974 RMK A01 T03890184  RH  030%=      5-min Rain = 0
KCR1 301841Z 23010KT 39/19 A2974 RMK A01 T03890185  RH  031%=      5-min Rain = 0
KCR1 301842Z 20011KT 39/18 A2974 RMK A01 T03910183  RH  030%=      5-min Rain = 0
KCR1 301843Z 17007KT 39/18 A2973 RMK A01 T03920183  RH  030%=      5-min Rain = 0
KCR1 301844Z 20012KT 39/18 A2973 RMK A01 T03910181  RH  029%=      5-min Rain = 0
KCR1 301845Z 23015KT 39/18 A2973 RMK A01 T03920180  RH  029%=      5-min Rain = 0
KCR1 301846Z 24012KT 39/17 A2974 RMK A01 T03930174  RH  028%=      5-min Rain = 0
KCR1 301847Z 27009KT 39/18 A2973 RMK A01 T03890177  RH  029%=      5-min Rain = 0
KCR1 301848Z 25010KT 39/18 A2973 RMK A01 T03880180  RH  030%=      5-min Rain = 0
KCR1 301849Z 22010KT 39/18 A2973 RMK A01 T03880181  RH  030%=      5-min Rain = 0
KCR1 301850Z 21012G18KT 39/18 A2973 RMK A01 T03910179  RH  029%=      5-min Rain = 0
KCR1 301851Z 22013KT 40/18 A2973 RMK A01 T03960177  RH  028%=      5-min Rain = 0
KCR1 301852Z 22011KT 40/18 A2973 RMK A01 T03990177  RH  028%=      5-min Rain = 0
KCR1 301853Z 22013KT 40/18 A2973 RMK A01 T04000178  RH  028%=      5-min Rain = 0
KCR1 301854Z 21014KT 40/18 A2973 RMK A01 T03980175  RH  027%=      5-min Rain = 0
KCR1 301855Z 20010G15KT 40/17 A2973 RMK A01 T03950174  RH  028%=      5-min Rain = 0
KCR1 301856Z 22012KT 39/18 A2973 RMK A01 T03920175  RH  028%=      5-min Rain = 0
KCR1 301857Z 21010KT 39/18 A2973 RMK A01 T03940175  RH  028%=      5-min Rain = 0
KCR1 301858Z 22005KT 39/17 A2973 RMK A01 T03940174  RH  028%=      5-min Rain = 0
KCR1 301859Z 22004KT 39/17 A2973 RMK A01 T03930174  RH  028%=      5-min Rain = 0
KCR1 301900Z 23007KT 39/17 A2973 RMK A01 T03920173  RH  028%=      5-min Rain = 0
KCR1 301901Z 24015G20KT 39/16 A2973 RMK A01 T03940155  RH  025%=      5-min Rain = 0
KCR1 301902Z 23013KT 40/14 A2973 RMK A01 T03990142  RH  022%=      5-min Rain = 0
KCR1 301903Z 25012KT 40/14 A2973 RMK A01 T04010139  RH  021%=      5-min Rain = 0
KCR1 301904Z 26012KT 40/15 A2973 RMK A01 T04010146  RH  022%=      5-min Rain = 0
KCR1 301905Z 25013KT 40/15 A2973 RMK A01 T03990152  RH  023%=      5-min Rain = 0
KCR1 301906Z 25013KT 40/16 A2973 RMK A01 T03990155  RH  024%=      5-min Rain = 0
KCR1 301907Z 25011KT 40/15 A2973 RMK A01 T03970151  RH  024%=      5-min Rain = 0
KCR1 301908Z 23009KT 40/16 A2973 RMK A01 T03980161  RH  025%=      5-min Rain = 0
KCR1 301909Z 20012KT 40/16 A2973 RMK A01 T03990164  RH  025%=      5-min Rain = 0
KCR1 301910Z 19011KT 40/16 A2973 RMK A01 T03970158  RH  025%=      5-min Rain = 0
KCR1 301911Z 21011G16KT 40/16 A2972 RMK A01 T03970158  RH  025%=      5-min Rain = 0
KCR1 301912Z 20014G19KT 40/16 A2972 RMK A01 T03990157  RH  024%=      5-min Rain = 0
KCR1 301913Z 21014KT 40/16 A2972 RMK A01 T04020160  RH  024%=      5-min Rain = 0
KCR1 301914Z 22013KT 40/16 A2972 RMK A01 T04040158  RH  024%=      5-min Rain = 0
KCR1 301915Z 22011KT 40/16 A2972 RMK A01 T04030161  RH  024%=      5-min Rain = 0
KCR1 301916Z 23011KT 40/16 A2972 RMK A01 T04010162  RH  025%=      5-min Rain = 0
KCR1 301917Z 23010G15KT 40/17 A2972 RMK A01 T04000165  RH  025%=      5-min Rain = 0
KCR1 301918Z 21010KT 40/16 A2972 RMK A01 T04010164  RH  025%=      5-min Rain = 0
KCR1 301919Z 21012KT 40/17 A2972 RMK A01 T04000166  RH  026%=      5-min Rain = 0
KCR1 301920Z 21009KT 40/16 A2972 RMK A01 T03990163  RH  025%=      5-min Rain = 0
KCR1 301921Z 22010KT 40/17 A2972 RMK A01 T03990166  RH  026%=      5-min Rain = 0
KCR1 301922Z 21009KT 40/17 A2972 RMK A01 T04020167  RH  026%=      5-min Rain = 0
KCR1 301923Z 23008KT 40/17 A2972 RMK A01 T04030165  RH  025%=      5-min Rain = 0
KCR1 301924Z 24009KT 40/17 A2972 RMK A01 T04000169  RH  026%=      5-min Rain = 0
KCR1 301925Z 24009G14KT 40/17 A2972 RMK A01 T04020165  RH  025%=      5-min Rain = 0
KCR1 301926Z 25012G17KT 40/16 A2972 RMK A01 T04000160  RH  025%=      5-min Rain = 0
KCR1 301927Z 23013KT 40/16 A2972 RMK A01 T04040159  RH  024%=      5-min Rain = 0
KCR1 301928Z 23013KT 41/15 A2972 RMK A01 T04070149  RH  022%=      5-min Rain = 0
KCR1 301929Z 23013KT 41/15 A2972 RMK A01 T04060150  RH  022%=      5-min Rain = 0
KCR1 301930Z 23011KT 41/16 A2972 RMK A01 T04050160  RH  024%=      5-min Rain = 0
KCR1 301931Z 24007KT 41/16 A2972 RMK A01 T04060160  RH  024%=      5-min Rain = 0
KCR1 301932Z 23010KT 41/16 A2972 RMK A01 T04080155  RH  023%=      5-min Rain = 0
KCR1 301933Z 22013KT 41/16 A2972 RMK A01 T04070157  RH  023%=      5-min Rain = 0
KCR1 301934Z 20013KT 41/16 A2972 RMK A01 T04050159  RH  024%=      5-min Rain = 0
KCR1 301935Z 22010KT 41/16 A2972 RMK A01 T04060160  RH  024%=      5-min Rain = 0
KCR1 301936Z 26009KT 41/16 A2972 RMK A01 T04070157  RH  023%=      5-min Rain = 0
KCR1 301937Z 25008KT 40/16 A2971 RMK A01 T04030156  RH  024%=      5-min Rain = 0
KCR1 301938Z 23006KT 40/16 A2971 RMK A01 T04020156  RH  024%=      5-min Rain = 0
KCR1 301939Z 23008KT 40/16 A2971 RMK A01 T04010160  RH  024%=      5-min Rain = 0
KCR1 301940Z 23009KT 41/16 A2971 RMK A01 T04050163  RH  025%=      5-min Rain = 0
KCR1 301941Z 21014KT 41/16 A2971 RMK A01 T04080163  RH  024%=      5-min Rain = 0
KCR1 301942Z 21014KT 41/16 A2971 RMK A01 T04080161  RH  024%=      5-min Rain = 0
KCR1 301943Z 21015G20KT 41/16 A2971 RMK A01 T04050156  RH  023%=      5-min Rain = 0
KCR1 301944Z 21018KT 41/16 A2971 RMK A01 T04070159  RH  024%=      5-min Rain = 0
KCR1 301945Z 22017KT 41/16 A2971 RMK A01 T04090158  RH  023%=      5-min Rain = 0
KCR1 301946Z 23014KT 41/16 A2971 RMK A01 T04080156  RH  023%=      5-min Rain = 0
KCR1 301947Z 23009KT 40/15 A2971 RMK A01 T04040154  RH  023%=      5-min Rain = 0
KCR1 301948Z 24010KT 40/16 A2971 RMK A01 T04040156  RH  024%=      5-min Rain = 0
KCR1 301949Z 25008KT 41/15 A2971 RMK A01 T04050154  RH  023%=      5-min Rain = 0
KCR1 301950Z 25007KT 40/16 A2971 RMK A01 T04040159  RH  024%=      5-min Rain = 0
KCR1 301951Z 24006KT 41/16 A2971 RMK A01 T04090159  RH  023%=      5-min Rain = 0
KCR1 301952Z 23007KT 41/16 A2971 RMK A01 T04100161  RH  023%=      5-min Rain = 0
KCR1 301953Z 20008KT 41/16 A2971 RMK A01 T04130157  RH  023%=      5-min Rain = 0
KCR1 301954Z 20014KT 41/15 A2971 RMK A01 T04130147  RH  021%=      5-min Rain = 0
KCR1 301955Z 20011KT 41/14 A2971 RMK A01 T04100143  RH  021%=      5-min Rain = 0
KCR1 301956Z 21016G23KT 41/15 A297 RMK A01 T04090146  RH  021%=      5-min Rain = 0
KCR1 301957Z 24013KT 41/15 A2971 RMK A01 T04100146  RH  021%=      5-min Rain = 0
KCR1 301958Z 22013KT 41/15 A2971 RMK A01 T04110149  RH  022%=      5-min Rain = 0
KCR1 301959Z 21014KT 41/14 A2971 RMK A01 T04120141  RH  020%=      5-min Rain = 0
KCR1 302000Z 21013G18KT 41/14 A2971 RMK A01 T04090139  RH  021%=      5-min Rain = 0
KCR1 302001Z 21014KT 41/14 A2971 RMK A01 T04080144  RH  021%=      5-min Rain = 0
KCR1 302002Z 22012KT 41/15 A2971 RMK A01 T04080148  RH  022%=      5-min Rain = 0
KCR1 302003Z 20012KT 41/15 A2971 RMK A01 T04100145  RH  021%=      5-min Rain = 0
KCR1 302004Z 19008KT 41/14 A2971 RMK A01 T04080142  RH  021%=      5-min Rain = 0
KCR1 302005Z 20008KT 41/15 A2971 RMK A01 T04070145  RH  022%=      5-min Rain = 0
KCR1 302006Z 21007KT 41/14 A297 RMK A01 T04060141  RH  021%=      5-min Rain = 0
KCR1 302007Z 19013G21KT 41/15 A297 RMK A01 T04090145  RH  021%=      5-min Rain = 0
KCR1 302008Z 22014G22KT 41/14 A297 RMK A01 T04120142  RH  021%=      5-min Rain = 0
KCR1 302009Z 23014KT 42/15 A297 RMK A01 T04150145  RH  021%=      5-min Rain = 0
KCR1 302010Z 23014KT 42/15 A297 RMK A01 T04150145  RH  021%=      5-min Rain = 0
KCR1 302011Z 23012KT 41/15 A297 RMK A01 T04120145  RH  021%=      5-min Rain = 0
KCR1 302012Z 22009KT 41/15 A297 RMK A01 T04100145  RH  021%=      5-min Rain = 0
KCR1 302013Z 21010KT 41/14 A297 RMK A01 T04110140  RH  020%=      5-min Rain = 0
KCR1 302014Z 21010KT 41/14 A297 RMK A01 T04120141  RH  020%=      5-min Rain = 0
KCR1 302015Z 22011KT 41/14 A297 RMK A01 T04120139  RH  020%=      5-min Rain = 0
KCR1 302016Z 21012KT 41/14 A297 RMK A01 T04100141  RH  021%=      5-min Rain = 0
KCR1 302017Z 21009G15KT 41/14 A297 RMK A01 T04110139  RH  020%=      5-min Rain = 0
KCR1 302018Z 21008KT 41/14 A297 RMK A01 T04120144  RH  021%=      5-min Rain = 0
KCR1 302019Z 19010KT 41/14 A297 RMK A01 T04140142  RH  020%=      5-min Rain = 0
KCR1 302020Z 20010KT 41/14 A297 RMK A01 T04110143  RH  021%=      5-min Rain = 0
KCR1 302021Z 21008KT 41/14 A297 RMK A01 T04120144  RH  021%=      5-min Rain = 0
KCR1 302022Z 18014KT 41/15 A297 RMK A01 T04130145  RH  021%=      5-min Rain = 0
KCR1 302023Z 18012KT 41/14 A297 RMK A01 T04120143  RH  021%=      5-min Rain = 0
KCR1 302024Z 20013KT 41/15 A297 RMK A01 T04130146  RH  021%=      5-min Rain = 0
KCR1 302025Z 21012KT 41/14 A297 RMK A01 T04120144  RH  021%=      5-min Rain = 0
KCR1 302026Z 22011KT 41/14 A297 RMK A01 T04110142  RH  021%=      5-min Rain = 0
KCR1 302027Z 23014G19KT 41/14 A297 RMK A01 T04120138  RH  020%=      5-min Rain = 0
KCR1 302028Z 25016KT 41/14 A297 RMK A01 T04110138  RH  020%=      5-min Rain = 0
KCR1 302029Z 25012KT 41/14 A297 RMK A01 T04100138  RH  020%=      5-min Rain = 0
KCR1 302030Z 26010KT 41/14 A297 RMK A01 T04080136  RH  020%=      5-min Rain = 0
KCR1 302031Z 23012G18KT 41/14 A297 RMK A01 T04100140  RH  021%=      5-min Rain = 0
KCR1 302032Z 23014KT 41/14 A297 RMK A01 T04130140  RH  020%=      5-min Rain = 0
KCR1 302033Z 23013KT 41/14 A297 RMK A01 T04130139  RH  020%=      5-min Rain = 0
KCR1 302034Z 23013KT 41/14 A297 RMK A01 T04120139  RH  020%=      5-min Rain = 0
KCR1 302035Z 23009KT 41/14 A297 RMK A01 T04110139  RH  020%=      5-min Rain = 0
KCR1 302036Z 24008KT 41/14 A297 RMK A01 T04110144  RH  021%=      5-min Rain = 0
KCR1 302037Z 23008G13KT 41/14 A297 RMK A01 T04120142  RH  021%=      5-min Rain = 0
KCR1 302038Z 23011KT 41/14 A297 RMK A01 T04120141  RH  020%=      5-min Rain = 0
KCR1 302039Z 23010KT 41/14 A297 RMK A01 T04120140  RH  020%=      5-min Rain = 0
KCR1 302040Z 23014KT 42/14 A297 RMK A01 T04160144  RH  020%=      5-min Rain = 0
KCR1 302041Z 24013G18KT 41/14 A297 RMK A01 T04130144  RH  021%=      5-min Rain = 0
KCR1 302042Z 26013KT 41/15 A297 RMK A01 T04120145  RH  021%=      5-min Rain = 0
KCR1 302043Z 27009KT 41/14 A2969 RMK A01 T04100144  RH  021%=      5-min Rain = 0
KCR1 302044Z 23010KT 41/15 A297 RMK A01 T04100145  RH  021%=      5-min Rain = 0
KCR1 302045Z 21013KT 41/15 A2969 RMK A01 T04110148  RH  022%=      5-min Rain = 0
KCR1 302046Z 21007KT 41/15 A2969 RMK A01 T04100145  RH  021%=      5-min Rain = 0
KCR1 302047Z 26007KT 41/15 A2969 RMK A01 T04090149  RH  022%=      5-min Rain = 0
KCR1 302048Z 23006KT 41/15 A2969 RMK A01 T04100151  RH  022%=      5-min Rain = 0
KCR1 302049Z 21008G15KT 41/15 A2969 RMK A01 T04130146  RH  021%=      5-min Rain = 0
KCR1 302050Z 22011KT 41/14 A2969 RMK A01 T04130144  RH  021%=      5-min Rain = 0
KCR1 302051Z 23014KT 42/14 A2969 RMK A01 T04150142  RH  020%=      5-min Rain = 0
KCR1 302052Z 23013KT 42/14 A2969 RMK A01 T04150140  RH  020%=      5-min Rain = 0
KCR1 302053Z 23011KT 41/14 A2969 RMK A01 T04140140  RH  020%=      5-min Rain = 0
KCR1 302054Z 22011KT 42/14 A2969 RMK A01 T04160142  RH  020%=      5-min Rain = 0
KCR1 302055Z 25011KT 42/14 A2969 RMK A01 T04170144  RH  020%=      5-min Rain = 0
KCR1 302056Z 24011KT 42/14 A2969 RMK A01 T04150142  RH  020%=      5-min Rain = 0
KCR1 302057Z 23011KT 41/14 A2969 RMK A01 T04120144  RH  021%=      5-min Rain = 0
KCR1 302058Z 23007KT 41/14 A2969 RMK A01 T04110141  RH  021%=      5-min Rain = 0
KCR1 302059Z 22011KT 41/15 A2969 RMK A01 T04120148  RH  021%=      5-min Rain = 0
KCR1 302100Z 20011KT 41/15 A2969 RMK A01 T04140149  RH  021%=      5-min Rain = 0
KCR1 302101Z 19006KT 41/15 A2969 RMK A01 T04130147  RH  021%=      5-min Rain = 0
KCR1 302102Z 21006KT 41/15 A2969 RMK A01 T04110150  RH  022%=      5-min Rain = 0
KCR1 302103Z 20009KT 42/15 A2969 RMK A01 T04150154  RH  022%=      5-min Rain = 0
KCR1 302104Z 21012G17KT 42/15 A2969 RMK A01 T04160152  RH  022%=      5-min Rain = 0
KCR1 302105Z 23014KT 42/15 A2969 RMK A01 T04170151  RH  021%=      5-min Rain = 0
KCR1 302106Z 23011KT 42/15 A2969 RMK A01 T04150146  RH  021%=      5-min Rain = 0
KCR1 302107Z 21012KT 42/15 A2969 RMK A01 T04160153  RH  022%=      5-min Rain = 0
KCR1 302108Z 21010KT 42/15 A2969 RMK A01 T04180147  RH  021%=      5-min Rain = 0
KCR1 302109Z 20010KT 42/15 A2969 RMK A01 T04150148  RH  021%=      5-min Rain = 0
KCR1 302110Z 20011KT 41/15 A2969 RMK A01 T04140150  RH  021%=      5-min Rain = 0
KCR1 302111Z 19010KT 42/15 A2969 RMK A01 T04160151  RH  021%=      5-min Rain = 0
KCR1 302112Z 21010KT 42/16 A2969 RMK A01 T04180155  RH  022%=      5-min Rain = 0
KCR1 302113Z 21009KT 42/15 A2969 RMK A01 T04200153  RH  021%=      5-min Rain = 0
KCR1 302114Z 22013KT 42/14 A2969 RMK A01 T04200141  RH  020%=      5-min Rain = 0
KCR1 302115Z 20010KT 42/13 A2969 RMK A01 T04170132  RH  019%=      5-min Rain = 0
KCR1 302116Z 21010KT 42/14 A2968 RMK A01 T04160135  RH  019%=      5-min Rain = 0
KCR1 302117Z 20009G15KT 42/14 A2968 RMK A01 T04160137  RH  020%=      5-min Rain = 0
KCR1 302118Z 20010KT 42/15 A2968 RMK A01 T04150147  RH  021%=      5-min Rain = 0
KCR1 302119Z 20012KT 42/16 A2968 RMK A01 T04170155  RH  022%=      5-min Rain = 0
KCR1 302120Z 21014KT 42/15 A2968 RMK A01 T04190153  RH  021%=      5-min Rain = 0
KCR1 302121Z 20014KT 42/15 A2968 RMK A01 T04190151  RH  021%=      5-min Rain = 0
KCR1 302122Z 21013KT 42/15 A2968 RMK A01 T04190154  RH  021%=      5-min Rain = 0
KCR1 302123Z 21012G19KT 42/15 A2968 RMK A01 T04160149  RH  021%=      5-min Rain = 0
KCR1 302124Z 21012G18KT 41/15 A2968 RMK A01 T04120151  RH  022%=      5-min Rain = 0
KCR1 302125Z 21014KT 42/15 A2968 RMK A01 T04150146  RH  021%=      5-min Rain = 0
KCR1 302126Z 21011KT 42/13 A2968 RMK A01 T04160130  RH  019%=      5-min Rain = 0
KCR1 302127Z 21009KT 42/13 A2968 RMK A01 T04160130  RH  019%=      5-min Rain = 0
KCR1 302128Z 24009KT 42/13 A2968 RMK A01 T04160131  RH  019%=      5-min Rain = 0
KCR1 302129Z 25010KT 42/13 A2968 RMK A01 T04150132  RH  019%=      5-min Rain = 0
KCR1 302130Z 23008KT 41/14 A2968 RMK A01 T04130136  RH  020%=      5-min Rain = 0
KCR1 302131Z 22009KT 42/15 A2968 RMK A01 T04160147  RH  021%=      5-min Rain = 0
KCR1 302132Z 22008KT 42/15 A2968 RMK A01 T04170154  RH  022%=      5-min Rain = 0
KCR1 302133Z 22008G13KT 42/15 A2968 RMK A01 T04150152  RH  022%=      5-min Rain = 0
KCR1 302134Z 22012G18KT 42/15 A2968 RMK A01 T04160152  RH  021%=      5-min Rain = 0
KCR1 302135Z 22014KT 42/15 A2968 RMK A01 T04190145  RH  020%=      5-min Rain = 0
KCR1 302136Z 22010G15KT 42/14 A2968 RMK A01 T04200143  RH  020%=      5-min Rain = 0
KCR1 302137Z 24009KT 42/13 A2968 RMK A01 T04180131  RH  018%=      5-min Rain = 0
KCR1 302138Z 26011KT 42/13 A2968 RMK A01 T04160130  RH  019%=      5-min Rain = 0
KCR1 302139Z 26009KT 41/13 A2968 RMK A01 T04140130  RH  019%=      5-min Rain = 0
KCR1 302140Z 26008KT 41/13 A2967 RMK A01 T04140131  RH  019%=      5-min Rain = 0
KCR1 302141Z 26008KT 42/13 A2967 RMK A01 T04150132  RH  019%=      5-min Rain = 0
KCR1 302142Z 24007KT 42/13 A2967 RMK A01 T04150131  RH  019%=      5-min Rain = 0
KCR1 302143Z 21010G16KT 42/13 A2967 RMK A01 T04160134  RH  019%=      5-min Rain = 0
KCR1 302144Z 21014KT 42/13 A2967 RMK A01 T04170134  RH  019%=      5-min Rain = 0
KCR1 302145Z 21013KT 41/13 A2967 RMK A01 T04140133  RH  019%=      5-min Rain = 0
KCR1 302146Z 22008KT 41/13 A2968 RMK A01 T04110134  RH  020%=      5-min Rain = 0
KCR1 302147Z 23011KT 41/13 A2968 RMK A01 T04100133  RH  020%=      5-min Rain = 0
KCR1 302148Z 25010KT 41/13 A2967 RMK A01 T04090130  RH  019%=      5-min Rain = 0
KCR1 302149Z 26006KT 41/13 A2967 RMK A01 T04080129  RH  019%=      5-min Rain = 0
KCR1 302150Z 26008KT 41/13 A2967 RMK A01 T04080131  RH  020%=      5-min Rain = 0
KCR1 302151Z 21007G12KT 41/13 A2967 RMK A01 T04100131  RH  019%=      5-min Rain = 0
KCR1 302152Z 17008KT 41/13 A2967 RMK A01 T04110128  RH  019%=      5-min Rain = 0
KCR1 302153Z 18005KT 41/13 A2967 RMK A01 T04120130  RH  019%=      5-min Rain = 0
KCR1 302154Z 21006KT 41/13 A2967 RMK A01 T04110130  RH  019%=      5-min Rain = 0
KCR1 302155Z 21006KT 41/13 A2967 RMK A01 T04110130  RH  019%=      5-min Rain = 0
KCR1 302156Z 21008KT 41/13 A2967 RMK A01 T04120131  RH  019%=      5-min Rain = 0
KCR1 302157Z 21008KT 41/13 A2967 RMK A01 T04140133  RH  019%=      5-min Rain = 0
KCR1 302158Z 21007KT 42/13 A2967 RMK A01 T04150126  RH  018%=      5-min Rain = 0
KCR1 302159Z 21010KT 42/13 A2967 RMK A01 T04150130  RH  019%=      5-min Rain = 0
KCR1 302200Z 19009KT 42/13 A2967 RMK A01 T04170128  RH  018%=      5-min Rain = 0
KCR1 302201Z 23011KT 42/13 A2966 RMK A01 T04180130  RH  018%=      5-min Rain = 0
KCR1 302202Z 25007KT 42/13 A2967 RMK A01 T04190130  RH  018%=      5-min Rain = 0
KCR1 302203Z 24007KT 42/14 A2967 RMK A01 T04200135  RH  019%=      5-min Rain = 0
KCR1 302204Z 23016KT 42/13 A2967 RMK A01 T04230133  RH  018%=      5-min Rain = 0
KCR1 302205Z 22019KT 42/13 A2967 RMK A01 T04210130  RH  018%=      5-min Rain = 0
KCR1 302206Z 23017KT 42/13 A2967 RMK A01 T04170127  RH  018%=      5-min Rain = 0
KCR1 302207Z 23014KT 42/13 A2967 RMK A01 T04150127  RH  018%=      5-min Rain = 0
KCR1 302208Z 22013KT 42/13 A2967 RMK A01 T04150128  RH  019%=      5-min Rain = 0
KCR1 302209Z 21013KT 42/13 A2967 RMK A01 T04150130  RH  019%=      5-min Rain = 0
KCR1 302210Z 21010KT 42/13 A2967 RMK A01 T04160130  RH  019%=      5-min Rain = 0
KCR1 302211Z 21008KT 42/13 A2967 RMK A01 T04170129  RH  018%=      5-min Rain = 0
KCR1 302212Z 21011G16KT 42/13 A2967 RMK A01 T04160130  RH  019%=      5-min Rain = 0
KCR1 302213Z 21012KT 42/13 A2967 RMK A01 T04160127  RH  018%=      5-min Rain = 0
KCR1 302214Z 22009KT 42/13 A2967 RMK A01 T04160127  RH  018%=      5-min Rain = 0
KCR1 302215Z 23009G14KT 42/13 A2967 RMK A01 T04150132  RH  019%=      5-min Rain = 0
KCR1 302216Z 21009KT 41/13 A2967 RMK A01 T04140132  RH  019%=      5-min Rain = 0
KCR1 302217Z 19013KT 42/13 A2967 RMK A01 T04170134  RH  019%=      5-min Rain = 0
KCR1 302218Z 20012KT 42/13 A2967 RMK A01 T04180134  RH  019%=      5-min Rain = 0
KCR1 302219Z 20013KT 42/14 A2967 RMK A01 T04180135  RH  019%=      5-min Rain = 0
KCR1 302220Z 21012KT 42/13 A2967 RMK A01 T04160134  RH  019%=      5-min Rain = 0
KCR1 302221Z 21014KT 42/13 A2967 RMK A01 T04150127  RH  018%=      5-min Rain = 0
KCR1 302222Z 21012KT 42/13 A2967 RMK A01 T04150126  RH  018%=      5-min Rain = 0
KCR1 302223Z 23010KT 42/13 A2967 RMK A01 T04170129  RH  018%=      5-min Rain = 0
KCR1 302224Z 21010KT 42/14 A2967 RMK A01 T04200139  RH  019%=      5-min Rain = 0
KCR1 302225Z 20010KT 42/15 A2967 RMK A01 T04210148  RH  020%=      5-min Rain = 0
KCR1 302226Z 21010KT 42/15 A2967 RMK A01 T04190148  RH  021%=      5-min Rain = 0
KCR1 302227Z 20011G17KT 42/15 A2967 RMK A01 T04180150  RH  021%=      5-min Rain = 0
KCR1 302228Z 19017KT 42/15 A2967 RMK A01 T04180148  RH  021%=      5-min Rain = 0
KCR1 302229Z 19014KT 42/15 A2967 RMK A01 T04160146  RH  021%=      5-min Rain = 0
KCR1 302230Z 22011KT 41/15 A2967 RMK A01 T04140145  RH  021%=      5-min Rain = 0
KCR1 302231Z 23011KT 41/14 A2967 RMK A01 T04140142  RH  020%=      5-min Rain = 0
KCR1 302232Z 23010KT 41/14 A2967 RMK A01 T04130144  RH  021%=      5-min Rain = 0
KCR1 302233Z 23006KT 41/14 A2967 RMK A01 T04130142  RH  020%=      5-min Rain = 0
KCR1 302234Z 26005KT 41/14 A2967 RMK A01 T04110142  RH  021%=      5-min Rain = 0
KCR1 302235Z 25007KT 41/15 A2967 RMK A01 T04100146  RH  021%=      5-min Rain = 0
KCR1 302236Z 24009KT 41/15 A2967 RMK A01 T04100147  RH  021%=      5-min Rain = 0
KCR1 302237Z 24010KT 41/14 A2967 RMK A01 T04110135  RH  020%=      5-min Rain = 0
KCR1 302238Z 24013KT 41/13 A2967 RMK A01 T04120125  RH  018%=      5-min Rain = 0
KCR1 302239Z 24010G15KT 41/13 A2967 RMK A01 T04100125  RH  019%=      5-min Rain = 0
KCR1 302240Z 23008KT 41/13 A2967 RMK A01 T04120127  RH  019%=      5-min Rain = 0
KCR1 302241Z 23009G14KT 41/13 A2967 RMK A01 T04130131  RH  019%=      5-min Rain = 0
KCR1 302242Z 23016KT 41/13 A2967 RMK A01 T04140128  RH  019%=      5-min Rain = 0
KCR1 302243Z 21015G21KT 41/13 A2967 RMK A01 T04140130  RH  019%=      5-min Rain = 0
KCR1 302244Z 20012KT 42/13 A2967 RMK A01 T04170133  RH  019%=      5-min Rain = 0
KCR1 302245Z 22012KT 42/13 A2967 RMK A01 T04200128  RH  018%=      5-min Rain = 0
KCR1 302246Z 23013KT 42/13 A2967 RMK A01 T04190125  RH  018%=      5-min Rain = 0
KCR1 302247Z 23012G18KT 42/13 A2967 RMK A01 T04180125  RH  018%=      5-min Rain = 0
KCR1 302248Z 23018KT 42/12 A2967 RMK A01 T04180122  RH  018%=      5-min Rain = 0
KCR1 302249Z 23016G21KT 42/13 A2967 RMK A01 T04170125  RH  018%=      5-min Rain = 0
KCR1 302250Z 23015KT 42/13 A2967 RMK A01 T04180125  RH  018%=      5-min Rain = 0
KCR1 302251Z 23014KT 42/13 A2967 RMK A01 T04190125  RH  018%=      5-min Rain = 0
KCR1 302252Z 24016KT 42/12 A2967 RMK A01 T04190124  RH  018%=      5-min Rain = 0
KCR1 302253Z 24014KT 42/12 A2967 RMK A01 T04170121  RH  017%=      5-min Rain = 0
KCR1 302254Z 23011KT 41/12 A2967 RMK A01 T04130120  RH  018%=      5-min Rain = 0
KCR1 302255Z 22011KT 41/12 A2967 RMK A01 T04120123  RH  018%=      5-min Rain = 0
KCR1 302256Z 23009KT 41/12 A2967 RMK A01 T04120123  RH  018%=      5-min Rain = 0
KCR1 302257Z 20010KT 41/12 A2967 RMK A01 T04120123  RH  018%=      5-min Rain = 0
KCR1 302258Z 22008KT 42/13 A2967 RMK A01 T04150131  RH  019%=      5-min Rain = 0
KCR1 302259Z 22009KT 42/13 A2967 RMK A01 T04160125  RH  018%=      5-min Rain = 0
KCR1 302300Z 23007KT 42/12 A2967 RMK A01 T04150123  RH  018%=      5-min Rain = 0
KCR1 302301Z 24005KT 42/13 A2967 RMK A01 T04150129  RH  019%=      5-min Rain = 0
KCR1 302302Z 20007KT 42/13 A2967 RMK A01 T04170132  RH  019%=      5-min Rain = 0
KCR1 302303Z 21009KT 42/14 A2967 RMK A01 T04190141  RH  020%=      5-min Rain = 0
KCR1 302304Z 20010KT 42/15 A2967 RMK A01 T04200145  RH  020%=      5-min Rain = 0
KCR1 302305Z 19012KT 42/15 A2967 RMK A01 T04210145  RH  020%=      5-min Rain = 0
KCR1 302306Z 20011KT 42/14 A2967 RMK A01 T04190144  RH  020%=      5-min Rain = 0
KCR1 302307Z 20012KT 42/14 A2967 RMK A01 T04170144  RH  020%=      5-min Rain = 0
KCR1 302308Z 19013KT 42/14 A2967 RMK A01 T04160143  RH  020%=      5-min Rain = 0
KCR1 302309Z 18012KT 41/14 A2966 RMK A01 T04140141  RH  020%=      5-min Rain = 0
KCR1 302310Z 19008KT 41/14 A2967 RMK A01 T04130143  RH  021%=      5-min Rain = 0
KCR1 302311Z 20009KT 41/14 A2966 RMK A01 T04140142  RH  020%=      5-min Rain = 0
KCR1 302312Z 23010KT 42/13 A2966 RMK A01 T04150132  RH  019%=      5-min Rain = 0
KCR1 302313Z 21010KT 42/13 A2966 RMK A01 T04150129  RH  019%=      5-min Rain = 0
KCR1 302314Z 21011KT 42/13 A2966 RMK A01 T04160130  RH  019%=      5-min Rain = 0
KCR1 302315Z 20012KT 42/13 A2966 RMK A01 T04170132  RH  019%=      5-min Rain = 0
KCR1 302316Z 19012KT 42/13 A2966 RMK A01 T04180128  RH  018%=      5-min Rain = 0
KCR1 302317Z 20011G16KT 42/13 A2967 RMK A01 T04170131  RH  019%=      5-min Rain = 0
KCR1 302318Z 18016KT 42/13 A2967 RMK A01 T04170134  RH  019%=      5-min Rain = 0
KCR1 302319Z 19022G28KT 41/18 A2967 RMK A01 T04120181  RH  027%=      5-min Rain = 0
KCR1 302320Z 19023KT 40/20 A2967 RMK A01 T03990201  RH  032%=      5-min Rain = 0
KCR1 302321Z 19021KT 39/21 A2967 RMK A01 T03900208  RH  035%=      5-min Rain = 0
KCR1 302322Z 19021KT 39/21 A2967 RMK A01 T03870212  RH  037%=      5-min Rain = 0
KCR1 302323Z 19019G27KT 38/21 A2967 RMK A01 T03840214  RH  038%=      5-min Rain = 0
KCR1 302324Z 18020KT 38/22 A2967 RMK A01 T03830215  RH  038%=      5-min Rain = 0
KCR1 302325Z 18021G26KT 38/22 A2967 RMK A01 T03830216  RH  038%=      5-min Rain = 0
KCR1 302326Z 18019G24KT 38/22 A2967 RMK A01 T03810216  RH  039%=      5-min Rain = 0
KCR1 302327Z 18024KT 38/22 A2967 RMK A01 T03790215  RH  039%=      5-min Rain = 0
KCR1 302328Z 18021G26KT 37/21 A2967 RMK A01 T03740214  RH  040%=      5-min Rain = 0
KCR1 302329Z 18021G26KT 37/21 A2967 RMK A01 T03730214  RH  040%=      5-min Rain = 0
KCR1 302330Z 17026G31KT 38/21 A2966 RMK A01 T03750213  RH  039%=      5-min Rain = 0
KCR1 302331Z 18027KT 38/21 A2967 RMK A01 T03750211  RH  039%=      5-min Rain = 0
KCR1 302332Z 18024KT 37/21 A2967 RMK A01 T03730209  RH  039%=      5-min Rain = 0
KCR1 302333Z 18021KT 37/21 A2967 RMK A01 T03730208  RH  038%=      5-min Rain = 0
KCR1 302334Z 18022KT 37/21 A2967 RMK A01 T03730207  RH  038%=      5-min Rain = 0
KCR1 302335Z 18021KT 37/20 A2967 RMK A01 T03730203  RH  037%=      5-min Rain = 0
KCR1 302336Z 18019KT 37/20 A2967 RMK A01 T03740195  RH  035%=      5-min Rain = 0
KCR1 302337Z 17018G23KT 38/20 A2967 RMK A01 T03760196  RH  035%=      5-min Rain = 0
KCR1 302338Z 17021KT 38/19 A2967 RMK A01 T03770193  RH  034%=      5-min Rain = 0
KCR1 302339Z 17018KT 38/19 A2967 RMK A01 T03760192  RH  034%=      5-min Rain = 0
KCR1 302340Z 18017KT 38/19 A2967 RMK A01 T03760191  RH  034%=      5-min Rain = 0
KCR1 302341Z 18013KT 38/19 A2967 RMK A01 T03790189  RH  033%=      5-min Rain = 0
KCR1 302342Z 18016KT 38/19 A2967 RMK A01 T03820186  RH  032%=      5-min Rain = 0
KCR1 302343Z 19018KT 38/18 A2967 RMK A01 T03840181  RH  031%=      5-min Rain = 0
KCR1 302344Z 18018KT 38/18 A2967 RMK A01 T03840180  RH  030%=      5-min Rain = 0
KCR1 302345Z 18019KT 38/18 A2967 RMK A01 T03840179  RH  030%=      5-min Rain = 0
KCR1 302346Z 19018KT 38/18 A2967 RMK A01 T03820178  RH  030%=      5-min Rain = 0
KCR1 302347Z 20019KT 38/18 A2967 RMK A01 T03800177  RH  031%=      5-min Rain = 0
KCR1 302348Z 19019KT 38/18 A2967 RMK A01 T03780176  RH  031%=      5-min Rain = 0
KCR1 302349Z 19019G25KT 38/18 A2967 RMK A01 T03780175  RH  031%=      5-min Rain = 0
KCR1 302350Z 19021KT 38/17 A2967 RMK A01 T03790172  RH  030%=      5-min Rain = 0
KCR1 302351Z 18021KT 38/17 A2967 RMK A01 T03790170  RH  029%=      5-min Rain = 0
KCR1 302352Z 19023KT 38/17 A2967 RMK A01 T03780167  RH  029%=      5-min Rain = 0
KCR1 302353Z 18024KT 38/16 A2968 RMK A01 T03770163  RH  028%=      5-min Rain = 0
KCR1 302354Z 18023G29KT 38/16 A2968 RMK A01 T03770162  RH  028%=      5-min Rain = 0
KCR1 302355Z 18022G27KT 38/16 A2968 RMK A01 T03770163  RH  029%=      5-min Rain = 0
KCR1 302356Z 18021KT 38/17 A2968 RMK A01 T03750166  RH  029%=      5-min Rain = 0
KCR1 302357Z 18018KT 38/17 A2969 RMK A01 T03750171  RH  030%=      5-min Rain = 0
KCR1 302358Z 17017KT 37/17 A2969 RMK A01 T03740174  RH  031%=      5-min Rain = 0
KCR1 302359Z 17024G30KT 37/18 A2969 RMK A01 T03730178  RH  032%=      5-min Rain = 0
KCR1 010000Z 17026KT 37/18 A2969 RMK A01 T03700179  RH  033%=      5-min Rain = 0
KCR1 010001Z 18026KT 37/18 A2969 RMK A01 T03690181  RH  033%=      5-min Rain = 0
KCR1 010002Z 18023KT 37/19 A2969 RMK A01 T03680186  RH  034%=      5-min Rain = 0
KCR1 010003Z 18023KT 37/19 A2969 RMK A01 T03680190  RH  035%=      5-min Rain = 0
KCR1 010004Z 18023G28KT 37/19 A2969 RMK A01 T03670191  RH  036%=      5-min Rain = 0
KCR1 010005Z 18025G30KT 37/19 A2969 RMK A01 T03650193  RH  037%=      5-min Rain = 0
KCR1 010006Z 17019KT 36/19 A2969 RMK A01 T03620193  RH  037%=      5-min Rain = 0
KCR1 010007Z 17022G29KT 36/20 A2969 RMK A01 T03620195  RH  038%=      5-min Rain = 0
KCR1 010008Z 18023KT 36/20 A2969 RMK A01 T03620197  RH  038%=      5-min Rain = 0
KCR1 010009Z 18022KT 36/20 A2969 RMK A01 T03610203  RH  040%=      5-min Rain = 0
KCR1 010010Z 17021G26KT 36/21 A2969 RMK A01 T03590205  RH  041%=      5-min Rain = 0
KCR1 010011Z 18019KT 36/21 A2969 RMK A01 T03590206  RH  041%=      5-min Rain = 0
KCR1 010012Z 18021KT 36/21 A2969 RMK A01 T03590208  RH  042%=      5-min Rain = 0
KCR1 010013Z 18019KT 36/21 A2969 RMK A01 T03580209  RH  042%=      5-min Rain = 0
KCR1 010014Z 18024KT 36/21 A2969 RMK A01 T03580208  RH  042%=      5-min Rain = 0
KCR1 010015Z 18024KT 36/21 A2969 RMK A01 T03570210  RH  042%=      5-min Rain = 0
KCR1 010016Z 18020KT 36/21 A2969 RMK A01 T03570211  RH  043%=      5-min Rain = 0
KCR1 010017Z 18021KT 36/21 A2969 RMK A01 T03570213  RH  043%=      5-min Rain = 0
KCR1 010018Z 18020G25KT 36/22 A2969 RMK A01 T03570215  RH  044%=      5-min Rain = 0
KCR1 010019Z 17020KT 36/22 A2969 RMK A01 T03570216  RH  044%=      5-min Rain = 0
KCR1 010020Z 17023KT 36/22 A2969 RMK A01 T03580217  RH  044%=      5-min Rain = 0
KCR1 010021Z 17023KT 36/22 A2969 RMK A01 T03580216  RH  044%=      5-min Rain = 0
KCR1 010022Z 18018KT 36/22 A2969 RMK A01 T03570218  RH  045%=      5-min Rain = 0
KCR1 010023Z 18019KT 36/22 A2969 RMK A01 T03570218  RH  045%=      5-min Rain = 0
KCR1 010024Z 17018G23KT 36/22 A2969 RMK A01 T03570219  RH  045%=      5-min Rain = 0
KCR1 010025Z 17021KT 36/22 A2969 RMK A01 T03570220  RH  045%=      5-min Rain = 0
KCR1 010026Z 18022KT 36/22 A2969 RMK A01 T03580220  RH  045%=      5-min Rain = 0
KCR1 010027Z 17021KT 36/22 A2969 RMK A01 T03580221  RH  045%=      5-min Rain = 0
KCR1 010028Z 17019KT 36/22 A2969 RMK A01 T03580222  RH  045%=      5-min Rain = 0
KCR1 010029Z 17021G26KT 36/22 A2969 RMK A01 T03590222  RH  045%=      5-min Rain = 0
KCR1 010030Z 17021KT 36/22 A2969 RMK A01 T03590221  RH  045%=      5-min Rain = 0
KCR1 010031Z 17024KT 36/22 A2968 RMK A01 T03590219  RH  044%=      5-min Rain = 0
KCR1 010032Z 18022G28KT 36/22 A2969 RMK A01 T03590218  RH  044%=      5-min Rain = 0
KCR1 010033Z 18020G26KT 36/22 A2969 RMK A01 T03590217  RH  044%=      5-min Rain = 0
KCR1 010034Z 18019KT 36/22 A2969 RMK A01 T03590219  RH  044%=      5-min Rain = 0
KCR1 010035Z 17019G24KT 36/22 A2969 RMK A01 T03590220  RH  045%=      5-min Rain = 0
KCR1 010036Z 17018KT 36/22 A2969 RMK A01 T03590218  RH  044%=      5-min Rain = 0
KCR1 010037Z 18015KT 36/22 A2969 RMK A01 T03590218  RH  044%=      5-min Rain = 0
KCR1 010038Z 17016KT 36/22 A2969 RMK A01 T03600218  RH  044%=      5-min Rain = 0
KCR1 010039Z 18017KT 36/22 A2969 RMK A01 T03600218  RH  044%=      5-min Rain = 0
KCR1 010040Z 18022G28KT 36/22 A2969 RMK A01 T03600217  RH  044%=      5-min Rain = 0
KCR1 010041Z 17022KT 36/22 A2969 RMK A01 T03590215  RH  043%=      5-min Rain = 0
KCR1 010042Z 18021KT 36/21 A2969 RMK A01 T03590214  RH  043%=      5-min Rain = 0
KCR1 010043Z 18020KT 36/21 A2969 RMK A01 T03590214  RH  043%=      5-min Rain = 0
KCR1 010044Z 18017KT 36/21 A2969 RMK A01 T03590214  RH  043%=      5-min Rain = 0
KCR1 010045Z 19017G23KT 36/21 A2969 RMK A01 T03600210  RH  042%=      5-min Rain = 0
KCR1 010046Z 19019KT 36/20 A2969 RMK A01 T03600201  RH  039%=      5-min Rain = 0
KCR1 010047Z 19016KT 36/20 A2969 RMK A01 T03610203  RH  040%=      5-min Rain = 0
KCR1 010048Z 19019G26KT 36/20 A2969 RMK A01 T03610200  RH  039%=      5-min Rain = 0
KCR1 010049Z 18017KT 36/20 A2969 RMK A01 T03610199  RH  039%=      5-min Rain = 0
KCR1 010050Z 19017KT 36/20 A2969 RMK A01 T03600199  RH  039%=      5-min Rain = 0
KCR1 010051Z 19017KT 36/20 A2969 RMK A01 T03600199  RH  039%=      5-min Rain = 0
KCR1 010052Z 18017G23KT 36/20 A2969 RMK A01 T03600201  RH  039%=      5-min Rain = 0
KCR1 010053Z 18014G21KT 36/20 A2969 RMK A01 T03600204  RH  040%=      5-min Rain = 0
KCR1 010054Z 17019KT 36/21 A2969 RMK A01 T03590205  RH  041%=      5-min Rain = 0
KCR1 010055Z 17018G23KT 36/21 A2969 RMK A01 T03590206  RH  041%=      5-min Rain = 0
KCR1 010056Z 17021KT 36/21 A2969 RMK A01 T03580205  RH  041%=      5-min Rain = 0
KCR1 010057Z 17017KT 36/21 A2969 RMK A01 T03580205  RH  041%=      5-min Rain = 0
KCR1 010058Z 18017KT 36/21 A297 RMK A01 T03570206  RH  041%=      5-min Rain = 0
KCR1 010059Z 18017KT 36/21 A2969 RMK A01 T03560206  RH  042%=      5-min Rain = 0
KCR1 010100Z 18017G22KT 36/21 A297 RMK A01 T03560206  RH  042%=      5-min Rain = 0
KCR1 010101Z 18017KT 36/21 A297 RMK A01 T03550206  RH  042%=      5-min Rain = 0
KCR1 010102Z 18019KT 36/21 A297 RMK A01 T03550206  RH  042%=      5-min Rain = 0
KCR1 010103Z 17021KT 35/21 A297 RMK A01 T03540205  RH  042%=      5-min Rain = 0
KCR1 010104Z 18019KT 35/21 A297 RMK A01 T03540206  RH  042%=      5-min Rain = 0
KCR1 010105Z 18019KT 35/21 A297 RMK A01 T03540207  RH  043%=      5-min Rain = 0
KCR1 010106Z 18020KT 35/21 A297 RMK A01 T03530208  RH  043%=      5-min Rain = 0
KCR1 010107Z 18017KT 35/21 A297 RMK A01 T03520209  RH  043%=      5-min Rain = 0
KCR1 010108Z 18019KT 35/21 A297 RMK A01 T03510209  RH  043%=      5-min Rain = 0
KCR1 010109Z 18019KT 35/21 A297 RMK A01 T03510209  RH  044%=      5-min Rain = 0
KCR1 010110Z 18020KT 35/21 A297 RMK A01 T03500210  RH  044%=      5-min Rain = 0
KCR1 010111Z 18020KT 35/21 A297 RMK A01 T03500210  RH  044%=      5-min Rain = 0
KCR1 010112Z 18017KT 35/21 A297 RMK A01 T03500210  RH  044%=      5-min Rain = 0
KCR1 010113Z 18015G20KT 35/21 A297 RMK A01 T03500210  RH  044%=      5-min Rain = 0
KCR1 010114Z 18014KT 35/21 A297 RMK A01 T03490210  RH  044%=      5-min Rain = 0
KCR1 010115Z 19018KT 35/21 A297 RMK A01 T03490210  RH  044%=      5-min Rain = 0
KCR1 010116Z 17016KT 35/21 A2971 RMK A01 T03480209  RH  044%=      5-min Rain = 0
KCR1 010117Z 18019KT 35/21 A2971 RMK A01 T03490210  RH  044%=      5-min Rain = 0
KCR1 010118Z 18019KT 35/21 A2971 RMK A01 T03480210  RH  044%=      5-min Rain = 0
KCR1 010119Z 18018KT 35/21 A2971 RMK A01 T03480210  RH  045%=      5-min Rain = 0
KCR1 010120Z 18018KT 35/21 A2971 RMK A01 T03480209  RH  045%=      5-min Rain = 0
KCR1 010121Z 18016G21KT 35/21 A297 RMK A01 T03480210  RH  045%=      5-min Rain = 0
KCR1 010122Z 18016KT 35/21 A2971 RMK A01 T03470211  RH  045%=      5-min Rain = 0
KCR1 010123Z 18014KT 35/21 A2971 RMK A01 T03460211  RH  045%=      5-min Rain = 0
KCR1 010124Z 18013KT 35/21 A2971 RMK A01 T03460212  RH  046%=      5-min Rain = 0
KCR1 010125Z 18017KT 35/21 A297 RMK A01 T03450212  RH  046%=      5-min Rain = 0
KCR1 010126Z 18014KT 35/21 A2971 RMK A01 T03450212  RH  046%=      5-min Rain = 0
KCR1 010127Z 18013KT 35/21 A2971 RMK A01 T03450213  RH  046%=      5-min Rain = 0
KCR1 010128Z 18011KT 34/21 A2971 RMK A01 T03440213  RH  047%=      5-min Rain = 0
KCR1 010129Z 18011KT 34/21 A2971 RMK A01 T03430214  RH  047%=      5-min Rain = 0
KCR1 010130Z 18012G17KT 34/21 A2971 RMK A01 T03430214  RH  047%=      5-min Rain = 0
KCR1 010131Z 18015G21KT 34/21 A2971 RMK A01 T03430214  RH  047%=      5-min Rain = 0
KCR1 010132Z 18017KT 34/21 A2971 RMK A01 T03420214  RH  047%=      5-min Rain = 0
KCR1 010133Z 18015KT 34/21 A2971 RMK A01 T03430214  RH  047%=      5-min Rain = 0
KCR1 010134Z 18014KT 34/22 A2971 RMK A01 T03420215  RH  047%=      5-min Rain = 0
KCR1 010135Z 18015KT 34/22 A2971 RMK A01 T03420216  RH  048%=      5-min Rain = 0
KCR1 010136Z 18017KT 34/22 A2971 RMK A01 T03410216  RH  048%=      5-min Rain = 0
KCR1 010137Z 18015KT 34/22 A2971 RMK A01 T03410217  RH  048%=      5-min Rain = 0
KCR1 010138Z 18014KT 34/22 A2971 RMK A01 T03400217  RH  049%=      5-min Rain = 0
KCR1 010139Z 18017KT 34/22 A2971 RMK A01 T03400218  RH  049%=      5-min Rain = 0
KCR1 010140Z 18014KT 34/22 A2971 RMK A01 T03400219  RH  049%=      5-min Rain = 0
KCR1 010141Z 18017KT 34/22 A2971 RMK A01 T03390219  RH  050%=      5-min Rain = 0
KCR1 010142Z 18017KT 34/22 A2971 RMK A01 T03390220  RH  050%=      5-min Rain = 0
KCR1 010143Z 18016KT 34/22 A2971 RMK A01 T03390220  RH  050%=      5-min Rain = 0
KCR1 010144Z 18017KT 34/22 A2971 RMK A01 T03380221  RH  050%=      5-min Rain = 0
KCR1 010145Z 18017KT 34/22 A297 RMK A01 T03380221  RH  051%=      5-min Rain = 0
KCR1 010146Z 17018KT 34/22 A297 RMK A01 T03370221  RH  051%=      5-min Rain = 0
KCR1 010147Z 18014KT 34/22 A297 RMK A01 T03380221  RH  051%=      5-min Rain = 0
KCR1 010148Z 18015KT 34/22 A297 RMK A01 T03370221  RH  051%=      5-min Rain = 0
KCR1 010149Z 18013KT 34/22 A297 RMK A01 T03370222  RH  051%=      5-min Rain = 0
KCR1 010150Z 18015KT 34/22 A297 RMK A01 T03360222  RH  051%=      5-min Rain = 0
KCR1 010151Z 18015KT 34/22 A297 RMK A01 T03350222  RH  052%=      5-min Rain = 0
KCR1 010152Z 18014KT 34/22 A297 RMK A01 T03350222  RH  052%=      5-min Rain = 0
KCR1 010153Z 18013KT 34/22 A297 RMK A01 T03350222  RH  052%=      5-min Rain = 0
KCR1 010154Z 18011KT 33/22 A297 RMK A01 T03340222  RH  052%=      5-min Rain = 0
KCR1 010155Z 18013KT 33/22 A297 RMK A01 T03340222  RH  052%=      5-min Rain = 0
KCR1 010156Z 18014KT 33/22 A297 RMK A01 T03340223  RH  052%=      5-min Rain = 0
KCR1 010157Z 18012KT 33/22 A297 RMK A01 T03340223  RH  052%=      5-min Rain = 0
KCR1 010158Z 18012KT 33/22 A297 RMK A01 T03330223  RH  052%=      5-min Rain = 0
KCR1 010159Z 18015KT 33/22 A297 RMK A01 T03330223  RH  053%=      5-min Rain = 0
KCR1 010200Z 18014KT 33/22 A2971 RMK A01 T03330224  RH  053%=      5-min Rain = 0
KCR1 010201Z 18014KT 33/22 A2971 RMK A01 T03320224  RH  053%=      5-min Rain = 0
KCR1 010202Z 18015KT 33/22 A2971 RMK A01 T03320224  RH  053%=      5-min Rain = 0
KCR1 010203Z 18013KT 33/22 A2971 RMK A01 T03320224  RH  053%=      5-min Rain = 0
KCR1 010204Z 18013KT 33/22 A2971 RMK A01 T03320224  RH  053%=      5-min Rain = 0
KCR1 010205Z 18014KT 33/22 A2971 RMK A01 T03310224  RH  053%=      5-min Rain = 0
KCR1 010206Z 19016KT 33/22 A2971 RMK A01 T03300224  RH  054%=      5-min Rain = 0
KCR1 010207Z 18015KT 33/22 A2971 RMK A01 T03300224  RH  054%=      5-min Rain = 0
KCR1 010208Z 18014KT 33/22 A2971 RMK A01 T03310224  RH  054%=      5-min Rain = 0
KCR1 010209Z 18018KT 33/22 A2971 RMK A01 T03310224  RH  054%=      5-min Rain = 0
KCR1 010210Z 18018KT 33/22 A2971 RMK A01 T03310224  RH  054%=      5-min Rain = 0
KCR1 010211Z 18016KT 33/22 A2971 RMK A01 T03300224  RH  054%=      5-min Rain = 0
KCR1 010212Z 18014KT 33/22 A2971 RMK A01 T03300224  RH  054%=      5-min Rain = 0
KCR1 010213Z 18013KT 33/22 A2971 RMK A01 T03290224  RH  054%=      5-min Rain = 0
KCR1 010214Z 17011KT 33/22 A2971 RMK A01 T03270224  RH  055%=      5-min Rain = 0
KCR1 010215Z 18014KT 33/23 A2971 RMK A01 T03260225  RH  055%=      5-min Rain = 0
KCR1 010216Z 18016KT 33/23 A2971 RMK A01 T03260225  RH  055%=      5-min Rain = 0
KCR1 010217Z 18016KT 33/23 A2971 RMK A01 T03250225  RH  056%=      5-min Rain = 0
KCR1 010218Z 18017KT 33/23 A2971 RMK A01 T03250226  RH  056%=      5-min Rain = 0
KCR1 010219Z 18017KT 33/23 A2971 RMK A01 T03250226  RH  056%=      5-min Rain = 0
KCR1 010220Z 18016KT 32/23 A2971 RMK A01 T03240227  RH  057%=      5-min Rain = 0
KCR1 010221Z 18017KT 32/23 A2971 RMK A01 T03230228  RH  057%=      5-min Rain = 0
KCR1 010222Z 18017KT 32/23 A2971 RMK A01 T03230228  RH  057%=      5-min Rain = 0
KCR1 010223Z 18016G21KT 32/23 A2971 RMK A01 T03220228  RH  058%=      5-min Rain = 0
KCR1 010224Z 18017G22KT 32/23 A2971 RMK A01 T03220228  RH  058%=      5-min Rain = 0
KCR1 010225Z 18017G22KT 32/23 A2971 RMK A01 T03210228  RH  058%=      5-min Rain = 0
KCR1 010226Z 18014KT 32/23 A2971 RMK A01 T03210228  RH  058%=      5-min Rain = 0
KCR1 010227Z 18014KT 32/23 A2971 RMK A01 T03200228  RH  058%=      5-min Rain = 0
KCR1 010228Z 18015KT 32/23 A2971 RMK A01 T03200229  RH  059%=      5-min Rain = 0
KCR1 010229Z 18015KT 32/23 A2972 RMK A01 T03200229  RH  059%=      5-min Rain = 0
KCR1 010230Z 18013KT 32/23 A2972 RMK A01 T03200229  RH  059%=      5-min Rain = 0
KCR1 010231Z 18012KT 32/23 A2972 RMK A01 T03190229  RH  059%=      5-min Rain = 0
KCR1 010232Z 18012KT 32/23 A2972 RMK A01 T03180229  RH  059%=      5-min Rain = 0
KCR1 010233Z 18011KT 32/23 A2972 RMK A01 T03180229  RH  059%=      5-min Rain = 0
KCR1 010234Z 18010KT 32/23 A2972 RMK A01 T03180229  RH  059%=      5-min Rain = 0
KCR1 010235Z 18012KT 32/23 A2972 RMK A01 T03170229  RH  060%=      5-min Rain = 0
KCR1 010236Z 18011KT 32/23 A2972 RMK A01 T03160229  RH  060%=      5-min Rain = 0
KCR1 010237Z 17012KT 32/23 A2972 RMK A01 T03160229  RH  060%=      5-min Rain = 0
KCR1 010238Z 18013KT 32/23 A2972 RMK A01 T03160230  RH  060%=      5-min Rain = 0
KCR1 010239Z 18012KT 32/23 A2972 RMK A01 T03160229  RH  060%=      5-min Rain = 0
KCR1 010240Z 18012KT 32/23 A2972 RMK A01 T03160230  RH  060%=      5-min Rain = 0
KCR1 010241Z 18013KT 32/23 A2972 RMK A01 T03160230  RH  060%=      5-min Rain = 0
KCR1 010242Z 19014KT 32/23 A2972 RMK A01 T03150230  RH  061%=      5-min Rain = 0
KCR1 010243Z 18014KT 32/23 A2972 RMK A01 T03150229  RH  061%=      5-min Rain = 0
KCR1 010244Z 18015KT 32/23 A2972 RMK A01 T03150230  RH  061%=      5-min Rain = 0
KCR1 010245Z 18016KT 32/23 A2972 RMK A01 T03150230  RH  061%=      5-min Rain = 0
KCR1 010246Z 18016KT 32/23 A2972 RMK A01 T03150230  RH  061%=      5-min Rain = 0
KCR1 010247Z 18019KT 31/23 A2972 RMK A01 T03140230  RH  061%=      5-min Rain = 0
KCR1 010248Z 18018KT 32/23 A2972 RMK A01 T03150230  RH  061%=      5-min Rain = 0
KCR1 010249Z 18015KT 31/23 A2972 RMK A01 T03140230  RH  061%=      5-min Rain = 0
KCR1 010250Z 18013KT 31/23 A2972 RMK A01 T03140229  RH  061%=      5-min Rain = 0
KCR1 010251Z 19013KT 31/23 A2972 RMK A01 T03140230  RH  061%=      5-min Rain = 0
KCR1 010252Z 18013KT 31/23 A2972 RMK A01 T03130229  RH  061%=      5-min Rain = 0
KCR1 010253Z 18013KT 31/23 A2972 RMK A01 T03130230  RH  061%=      5-min Rain = 0
KCR1 010254Z 18014KT 31/23 A2973 RMK A01 T03120230  RH  061%=      5-min Rain = 0
KCR1 010255Z 18014KT 31/23 A2972 RMK A01 T03120229  RH  061%=      5-min Rain = 0
KCR1 010256Z 18017KT 31/23 A2972 RMK A01 T03130230  RH  061%=      5-min Rain = 0
KCR1 010257Z 19017KT 31/23 A2972 RMK A01 T03130230  RH  061%=      5-min Rain = 0
KCR1 010258Z 19015KT 31/23 A2972 RMK A01 T03120229  RH  061%=      5-min Rain = 0
KCR1 010259Z 18013KT 31/23 A2972 RMK A01 T03120229  RH  061%=      5-min Rain = 0
KCR1 010300Z 18012KT 31/23 A2972 RMK A01 T03120229  RH  061%=      5-min Rain = 0
KCR1 010301Z 18014KT 31/23 A2972 RMK A01 T03110229  RH  062%=      5-min Rain = 0
KCR1 010302Z 18015KT 31/23 A2972 RMK A01 T03110229  RH  062%=      5-min Rain = 0
KCR1 010303Z 18016KT 31/23 A2972 RMK A01 T03110228  RH  062%=      5-min Rain = 0
KCR1 010304Z 18015KT 31/23 A2972 RMK A01 T03110228  RH  061%=      5-min Rain = 0
KCR1 010305Z 18016KT 31/23 A2972 RMK A01 T03110228  RH  061%=      5-min Rain = 0
KCR1 010306Z 18014KT 31/23 A2972 RMK A01 T03110228  RH  061%=      5-min Rain = 0
KCR1 010307Z 18014KT 31/23 A2972 RMK A01 T03110228  RH  062%=      5-min Rain = 0
KCR1 010308Z 18015G20KT 31/23 A2973 RMK A01 T03100228  RH  062%=      5-min Rain = 0
KCR1 010309Z 18018KT 31/23 A2972 RMK A01 T03100228  RH  062%=      5-min Rain = 0
KCR1 010310Z 18016KT 31/23 A2972 RMK A01 T03100227  RH  061%=      5-min Rain = 0
KCR1 010311Z 18017KT 31/23 A2972 RMK A01 T03100227  RH  061%=      5-min Rain = 0
KCR1 010312Z 18015KT 31/23 A2973 RMK A01 T03110227  RH  061%=      5-min Rain = 0
KCR1 010313Z 18016KT 31/23 A2973 RMK A01 T03110228  RH  061%=      5-min Rain = 0
KCR1 010314Z 18013KT 31/23 A2973 RMK A01 T03110227  RH  061%=      5-min Rain = 0
KCR1 010315Z 18015KT 31/23 A2973 RMK A01 T03100227  RH  061%=      5-min Rain = 0
KCR1 010316Z 18015KT 31/23 A2973 RMK A01 T03100227  RH  061%=      5-min Rain = 0
KCR1 010317Z 18013KT 31/23 A2973 RMK A01 T03100227  RH  061%=      5-min Rain = 0
KCR1 010318Z 18017KT 31/23 A2972 RMK A01 T03090227  RH  062%=      5-min Rain = 0
KCR1 010319Z 19016KT 31/23 A2972 RMK A01 T03090227  RH  061%=      5-min Rain = 0
KCR1 010320Z 18016KT 31/23 A2973 RMK A01 T03100227  RH  061%=      5-min Rain = 0
KCR1 010321Z 18015KT 31/23 A2973 RMK A01 T03100226  RH  061%=      5-min Rain = 0
KCR1 010322Z 18014KT 31/23 A2973 RMK A01 T03090226  RH  061%=      5-min Rain = 0
KCR1 010323Z 18014KT 31/23 A2973 RMK A01 T03090226  RH  061%=      5-min Rain = 0
KCR1 010324Z 18012KT 31/23 A2973 RMK A01 T03090226  RH  061%=      5-min Rain = 0
KCR1 010325Z 18013KT 31/23 A2973 RMK A01 T03090226  RH  062%=      5-min Rain = 0
KCR1 010326Z 18013KT 31/23 A2973 RMK A01 T03080226  RH  062%=      5-min Rain = 0
KCR1 010327Z 18012KT 31/23 A2973 RMK A01 T03080226  RH  062%=      5-min Rain = 0
KCR1 010328Z 18015KT 31/23 A2973 RMK A01 T03080225  RH  062%=      5-min Rain = 0
KCR1 010329Z 18014KT 31/23 A2973 RMK A01 T03080225  RH  061%=      5-min Rain = 0
KCR1 010330Z 18011KT 31/23 A2973 RMK A01 T03080226  RH  061%=      5-min Rain = 0
KCR1 010331Z 18012KT 31/23 A2973 RMK A01 T03080226  RH  062%=      5-min Rain = 0
KCR1 010332Z 18014KT 31/23 A2973 RMK A01 T03070225  RH  062%=      5-min Rain = 0
KCR1 010333Z 18012KT 31/23 A2973 RMK A01 T03070225  RH  062%=      5-min Rain = 0
KCR1 010334Z 18012KT 31/23 A2973 RMK A01 T03070225  RH  061%=      5-min Rain = 0
KCR1 010335Z 18013KT 31/23 A2973 RMK A01 T03070225  RH  062%=      5-min Rain = 0
KCR1 010336Z 19013KT 31/23 A2973 RMK A01 T03070225  RH  061%=      5-min Rain = 0
KCR1 010337Z 18014KT 31/22 A2973 RMK A01 T03070224  RH  061%=      5-min Rain = 0
KCR1 010338Z 18014KT 31/22 A2973 RMK A01 T03070224  RH  061%=      5-min Rain = 0
KCR1 010339Z 18012KT 31/22 A2973 RMK A01 T03070224  RH  061%=      5-min Rain = 0
KCR1 010340Z 18011KT 31/23 A2973 RMK A01 T03070225  RH  061%=      5-min Rain = 0
KCR1 010341Z 18013KT 31/22 A2973 RMK A01 T03060224  RH  061%=      5-min Rain = 0
KCR1 010342Z 18014KT 31/22 A2973 RMK A01 T03060223  RH  061%=      5-min Rain = 0
KCR1 010343Z 18014KT 31/22 A2973 RMK A01 T03060223  RH  061%=      5-min Rain = 0
KCR1 010344Z 18015KT 31/22 A2973 RMK A01 T03070223  RH  061%=      5-min Rain = 0
KCR1 010345Z 18011KT 31/22 A2974 RMK A01 T03070223  RH  061%=      5-min Rain = 0
KCR1 010346Z 18014KT 31/22 A2973 RMK A01 T03070223  RH  061%=      5-min Rain = 0
KCR1 010347Z 18013KT 31/22 A2974 RMK A01 T03060223  RH  061%=      5-min Rain = 0
KCR1 010348Z 18015KT 31/22 A2974 RMK A01 T03060222  RH  061%=      5-min Rain = 0
KCR1 010349Z 18015KT 31/22 A2974 RMK A01 T03060222  RH  061%=      5-min Rain = 0
KCR1 010350Z 18012KT 31/22 A2974 RMK A01 T03070222  RH  061%=      5-min Rain = 0
KCR1 010351Z 18014KT 31/22 A2974 RMK A01 T03060222  RH  061%=      5-min Rain = 0
KCR1 010352Z 17016KT 31/22 A2974 RMK A01 T03060222  RH  061%=      5-min Rain = 0
KCR1 010353Z 18014KT 31/22 A2974 RMK A01 T03070221  RH  060%=      5-min Rain = 0
KCR1 010354Z 18014KT 31/22 A2974 RMK A01 T03070221  RH  060%=      5-min Rain = 0
KCR1 010355Z 18014KT 31/22 A2974 RMK A01 T03070221  RH  060%=      5-min Rain = 0
KCR1 010356Z 18014KT 31/22 A2974 RMK A01 T03060221  RH  060%=      5-min Rain = 0
KCR1 010357Z 18012KT 31/22 A2974 RMK A01 T03060221  RH  060%=      5-min Rain = 0
KCR1 010358Z 18013KT 31/22 A2974 RMK A01 T03050221  RH  061%=      5-min Rain = 0
KCR1 010359Z 18012KT 31/22 A2974 RMK A01 T03050221  RH  061%=      5-min Rain = 0
KCR1 010400Z 18012KT 31/22 A2974 RMK A01 T03050221  RH  061%=      5-min Rain = 0
KCR1 010401Z 18011KT 31/22 A2974 RMK A01 T03050221  RH  061%=      5-min Rain = 0
KCR1 010402Z 18012KT 31/22 A2974 RMK A01 T03050220  RH  061%=      5-min Rain = 0
KCR1 010403Z 18012KT 31/22 A2974 RMK A01 T03050220  RH  061%=      5-min Rain = 0
KCR1 010404Z 18012KT 31/22 A2974 RMK A01 T03050220  RH  060%=      5-min Rain = 0
KCR1 010405Z 18013G18KT 30/22 A2974 RMK A01 T03040219  RH  060%=      5-min Rain = 0
KCR1 010406Z 18014KT 31/22 A2974 RMK A01 T03050219  RH  060%=      5-min Rain = 0
KCR1 010407Z 18013KT 31/22 A2974 RMK A01 T03050219  RH  060%=      5-min Rain = 0
KCR1 010408Z 18012KT 31/22 A2974 RMK A01 T03050219  RH  060%=      5-min Rain = 0
KCR1 010409Z 18014KT 31/22 A2974 RMK A01 T03050219  RH  060%=      5-min Rain = 0
KCR1 010410Z 18014KT 31/22 A2974 RMK A01 T03060219  RH  060%=      5-min Rain = 0
KCR1 010411Z 18013KT 31/22 A2974 RMK A01 T03050218  RH  060%=      5-min Rain = 0
KCR1 010412Z 18014KT 31/22 A2974 RMK A01 T03060218  RH  060%=      5-min Rain = 0
KCR1 010413Z 18014KT 31/22 A2974 RMK A01 T03050218  RH  060%=      5-min Rain = 0
KCR1 010414Z 18013KT 31/22 A2974 RMK A01 T03050218  RH  059%=      5-min Rain = 0
KCR1 010415Z 18012KT 31/22 A2974 RMK A01 T03050217  RH  059%=      5-min Rain = 0
KCR1 010416Z 18012KT 31/22 A2974 RMK A01 T03050217  RH  059%=      5-min Rain = 0
KCR1 010417Z 18013KT 31/22 A2974 RMK A01 T03050218  RH  059%=      5-min Rain = 0
KCR1 010418Z 18012KT 31/22 A2974 RMK A01 T03050217  RH  059%=      5-min Rain = 0
KCR1 010419Z 18013KT 31/22 A2975 RMK A01 T03050217  RH  059%=      5-min Rain = 0
KCR1 010420Z 18013KT 31/22 A2975 RMK A01 T03050217  RH  059%=      5-min Rain = 0
KCR1 010421Z 18015KT 31/22 A2975 RMK A01 T03050217  RH  059%=      5-min Rain = 0
KCR1 010422Z 18014KT 31/22 A2975 RMK A01 T03050216  RH  059%=      5-min Rain = 0
KCR1 010423Z 18013KT 31/22 A2975 RMK A01 T03050216  RH  059%=      5-min Rain = 0
KCR1 010424Z 18015KT 31/22 A2975 RMK A01 T03060216  RH  059%=      5-min Rain = 0
KCR1 010425Z 18015KT 31/22 A2975 RMK A01 T03060215  RH  059%=      5-min Rain = 0
KCR1 010426Z 18014KT 31/22 A2975 RMK A01 T03070216  RH  058%=      5-min Rain = 0
KCR1 010427Z 18013KT 31/22 A2975 RMK A01 T03060215  RH  058%=      5-min Rain = 0
KCR1 010428Z 18014KT 31/22 A2975 RMK A01 T03060216  RH  059%=      5-min Rain = 0
KCR1 010429Z 18016G22KT 31/22 A2975 RMK A01 T03060215  RH  058%=      5-min Rain = 0
KCR1 010430Z 18015KT 31/22 A2975 RMK A01 T03060215  RH  058%=      5-min Rain = 0
KCR1 010431Z 18013KT 31/21 A2975 RMK A01 T03060214  RH  058%=      5-min Rain = 0
KCR1 010432Z 18013KT 31/22 A2975 RMK A01 T03060215  RH  058%=      5-min Rain = 0
KCR1 010433Z 18014KT 31/22 A2975 RMK A01 T03070215  RH  058%=      5-min Rain = 0
KCR1 010434Z 18015G20KT 31/21 A2975 RMK A01 T03060214  RH  058%=      5-min Rain = 0
KCR1 010435Z 18014G19KT 31/21 A2975 RMK A01 T03060214  RH  058%=      5-min Rain = 0
KCR1 010436Z 18016KT 31/21 A2975 RMK A01 T03060214  RH  058%=      5-min Rain = 0
KCR1 010437Z 18016KT 31/21 A2975 RMK A01 T03070213  RH  058%=      5-min Rain = 0
KCR1 010438Z 18018KT 31/21 A2975 RMK A01 T03070213  RH  057%=      5-min Rain = 0
KCR1 010439Z 18014KT 31/21 A2975 RMK A01 T03080213  RH  057%=      5-min Rain = 0
KCR1 010440Z 18016KT 31/21 A2975 RMK A01 T03080213  RH  057%=      5-min Rain = 0
KCR1 010441Z 19016G21KT 31/21 A2975 RMK A01 T03070213  RH  057%=      5-min Rain = 0
KCR1 010442Z 18014KT 31/21 A2975 RMK A01 T03080213  RH  057%=      5-min Rain = 0
KCR1 010443Z 18016KT 31/21 A2975 RMK A01 T03070213  RH  057%=      5-min Rain = 0
KCR1 010444Z 18016G21KT 31/21 A2975 RMK A01 T03070213  RH  057%=      5-min Rain = 0
KCR1 010445Z 18017KT 31/21 A2975 RMK A01 T03070212  RH  057%=      5-min Rain = 0
KCR1 010446Z 19014KT 31/21 A2975 RMK A01 T03070212  RH  057%=      5-min Rain = 0
KCR1 010447Z 18013KT 31/21 A2975 RMK A01 T03070212  RH  057%=      5-min Rain = 0
KCR1 010448Z 18013KT 31/21 A2975 RMK A01 T03070212  RH  057%=      5-min Rain = 0
KCR1 010449Z 18013KT 31/21 A2975 RMK A01 T03070212  RH  057%=      5-min Rain = 0
KCR1 010450Z 18015KT 31/21 A2975 RMK A01 T03060212  RH  057%=      5-min Rain = 0
KCR1 010451Z 19014KT 31/21 A2975 RMK A01 T03060212  RH  057%=      5-min Rain = 0
KCR1 010452Z 19014KT 31/21 A2975 RMK A01 T03070212  RH  057%=      5-min Rain = 0
KCR1 010453Z 19013KT 31/21 A2975 RMK A01 T03070212  RH  057%=      5-min Rain = 0
KCR1 010454Z 19014KT 31/21 A2975 RMK A01 T03060212  RH  057%=      5-min Rain = 0
KCR1 010455Z 18015KT 31/21 A2975 RMK A01 T03060211  RH  057%=      5-min Rain = 0
KCR1 010456Z 18015G21KT 31/21 A2975 RMK A01 T03070211  RH  057%=      5-min Rain = 0
KCR1 010457Z 19018KT 31/21 A2975 RMK A01 T03070211  RH  056%=      5-min Rain = 0
KCR1 010458Z 19016KT 31/21 A2975 RMK A01 T03080211  RH  056%=      5-min Rain = 0
KCR1 010459Z 19015KT 31/21 A2975 RMK A01 T03080211  RH  056%=      5-min Rain = 0

Page generated in 0.0707 seconds.